<?xml version="1.0" encoding="UTF-8" standalone="no" ?>
<gpx xmlns="http://www.topografix.com/GPX/1/1" xmlns:xsi="http://www.w3.org/2001/XMLSchema-instance" xsi:schemaLocation="http://www.topografix.com/GPX/1/1 http://www.topografix.com/GPX/1/1/gpx.xsd" version="1.1" creator="VisuGPX - https://www.visugpx.com">
  <metadata>
    <name>Pas du pin et dent du Pra de Prabert</name>
    <desc><![CDATA[Petite boucle en départ de prabert avec quelques manip sympas]]></desc>
  </metadata>
  <trk>
    <name><![CDATA[Move]]></name>
    <trkseg>
      <trkpt lat="45.23265" lon="5.9888">
        <ele>1230</ele>
        <time>2015-01-24T06:51:34.000Z</time>
      </trkpt>
      <trkpt lat="45.23262" lon="5.98881">
        <ele>1230</ele>
        <time>2015-01-24T06:51:38.740Z</time>
      </trkpt>
      <trkpt lat="45.23247" lon="5.98887">
        <ele>1230</ele>
        <time>2015-01-24T06:51:50.740Z</time>
      </trkpt>
      <trkpt lat="45.23234" lon="5.98883">
        <ele>1231</ele>
        <time>2015-01-24T06:51:58.540Z</time>
      </trkpt>
      <trkpt lat="45.23223" lon="5.98888">
        <ele>1232</ele>
        <time>2015-01-24T06:52:06.540Z</time>
      </trkpt>
      <trkpt lat="45.2321" lon="5.98896">
        <ele>1234</ele>
        <time>2015-01-24T06:52:14.740Z</time>
      </trkpt>
      <trkpt lat="45.23204" lon="5.9891">
        <ele>1237</ele>
        <time>2015-01-24T06:52:22.540Z</time>
      </trkpt>
      <trkpt lat="45.23196" lon="5.98925">
        <ele>1238</ele>
        <time>2015-01-24T06:52:30.540Z</time>
      </trkpt>
      <trkpt lat="45.23192" lon="5.98936">
        <ele>1238</ele>
        <time>2015-01-24T06:52:38.740Z</time>
      </trkpt>
      <trkpt lat="45.23185" lon="5.98949">
        <ele>1239</ele>
        <time>2015-01-24T06:52:46.540Z</time>
      </trkpt>
      <trkpt lat="45.23178" lon="5.98963">
        <ele>1241</ele>
        <time>2015-01-24T06:52:54.540Z</time>
      </trkpt>
      <trkpt lat="45.2317" lon="5.9898">
        <ele>1243</ele>
        <time>2015-01-24T06:53:06.540Z</time>
      </trkpt>
      <trkpt lat="45.23162" lon="5.98997">
        <ele>1245</ele>
        <time>2015-01-24T06:53:14.740Z</time>
      </trkpt>
      <trkpt lat="45.23154" lon="5.99009">
        <ele>1247</ele>
        <time>2015-01-24T06:53:22.540Z</time>
      </trkpt>
      <trkpt lat="45.23149" lon="5.9903">
        <ele>1247</ele>
        <time>2015-01-24T06:53:30.540Z</time>
      </trkpt>
      <trkpt lat="45.23144" lon="5.99045">
        <ele>1250</ele>
        <time>2015-01-24T06:53:38.740Z</time>
      </trkpt>
      <trkpt lat="45.23139" lon="5.99062">
        <ele>1252</ele>
        <time>2015-01-24T06:53:46.540Z</time>
      </trkpt>
      <trkpt lat="45.23138" lon="5.9908">
        <ele>1253</ele>
        <time>2015-01-24T06:53:54.540Z</time>
      </trkpt>
      <trkpt lat="45.23127" lon="5.99095">
        <ele>1254</ele>
        <time>2015-01-24T06:54:06.540Z</time>
      </trkpt>
      <trkpt lat="45.23113" lon="5.99102">
        <ele>1255</ele>
        <time>2015-01-24T06:54:14.740Z</time>
      </trkpt>
      <trkpt lat="45.23104" lon="5.99115">
        <ele>1257</ele>
        <time>2015-01-24T06:54:22.540Z</time>
      </trkpt>
      <trkpt lat="45.23094" lon="5.99121">
        <ele>1257</ele>
        <time>2015-01-24T06:54:30.540Z</time>
      </trkpt>
      <trkpt lat="45.23085" lon="5.99135">
        <ele>1259</ele>
        <time>2015-01-24T06:54:38.740Z</time>
      </trkpt>
      <trkpt lat="45.23074" lon="5.99137">
        <ele>1261</ele>
        <time>2015-01-24T06:54:46.540Z</time>
      </trkpt>
      <trkpt lat="45.2306" lon="5.99142">
        <ele>1263</ele>
        <time>2015-01-24T06:54:54.540Z</time>
      </trkpt>
      <trkpt lat="45.23049" lon="5.99154">
        <ele>1265</ele>
        <time>2015-01-24T06:55:03.340Z</time>
      </trkpt>
      <trkpt lat="45.23037" lon="5.99163">
        <ele>1265.9800064</ele>
        <time>2015-01-24T06:55:11.740Z</time>
      </trkpt>
      <trkpt lat="45.23025" lon="5.99159">
        <ele>1266</ele>
        <time>2015-01-24T06:55:19.540Z</time>
      </trkpt>
      <trkpt lat="45.23013" lon="5.99164">
        <ele>1268</ele>
        <time>2015-01-24T06:55:27.540Z</time>
      </trkpt>
      <trkpt lat="45.23" lon="5.9917">
        <ele>1269</ele>
        <time>2015-01-24T06:55:39.540Z</time>
      </trkpt>
      <trkpt lat="45.22986" lon="5.9917">
        <ele>1271</ele>
        <time>2015-01-24T06:55:47.740Z</time>
      </trkpt>
      <trkpt lat="45.22973" lon="5.99165">
        <ele>1272</ele>
        <time>2015-01-24T06:55:55.540Z</time>
      </trkpt>
      <trkpt lat="45.22957" lon="5.99172">
        <ele>1274</ele>
        <time>2015-01-24T06:56:03.540Z</time>
      </trkpt>
      <trkpt lat="45.22946" lon="5.99177">
        <ele>1275.9600128</ele>
        <time>2015-01-24T06:56:11.740Z</time>
      </trkpt>
      <trkpt lat="45.22937" lon="5.99168">
        <ele>1276</ele>
        <time>2015-01-24T06:56:19.540Z</time>
      </trkpt>
      <trkpt lat="45.22923" lon="5.99177">
        <ele>1279.5599872</ele>
        <time>2015-01-24T06:56:31.540Z</time>
      </trkpt>
      <trkpt lat="45.22911" lon="5.99187">
        <ele>1281</ele>
        <time>2015-01-24T06:56:43.540Z</time>
      </trkpt>
      <trkpt lat="45.22899" lon="5.99196">
        <ele>1282.5445466758</ele>
        <time>2015-01-24T06:56:51.540Z</time>
      </trkpt>
      <trkpt lat="45.22887" lon="5.99219">
        <ele>1285</ele>
        <time>2015-01-24T06:57:04.540Z</time>
      </trkpt>
      <trkpt lat="45.22878" lon="5.99229">
        <ele>1285</ele>
        <time>2015-01-24T06:57:12.540Z</time>
      </trkpt>
      <trkpt lat="45.2287" lon="5.99241">
        <ele>1285</ele>
        <time>2015-01-24T06:57:20.740Z</time>
      </trkpt>
      <trkpt lat="45.22862" lon="5.99252">
        <ele>1287</ele>
        <time>2015-01-24T06:57:28.540Z</time>
      </trkpt>
      <trkpt lat="45.22856" lon="5.99267">
        <ele>1289</ele>
        <time>2015-01-24T06:57:36.540Z</time>
      </trkpt>
      <trkpt lat="45.22846" lon="5.99271">
        <ele>1290</ele>
        <time>2015-01-24T06:57:44.740Z</time>
      </trkpt>
      <trkpt lat="45.22834" lon="5.99282">
        <ele>1292</ele>
        <time>2015-01-24T06:57:52.540Z</time>
      </trkpt>
      <trkpt lat="45.22825" lon="5.9929">
        <ele>1292</ele>
        <time>2015-01-24T06:58:00.540Z</time>
      </trkpt>
      <trkpt lat="45.22815" lon="5.99297">
        <ele>1294</ele>
        <time>2015-01-24T06:58:08.740Z</time>
      </trkpt>
      <trkpt lat="45.22801" lon="5.99297">
        <ele>1295</ele>
        <time>2015-01-24T06:58:16.540Z</time>
      </trkpt>
      <trkpt lat="45.2279" lon="5.99299">
        <ele>1297</ele>
        <time>2015-01-24T06:58:24.540Z</time>
      </trkpt>
      <trkpt lat="45.22784" lon="5.99312">
        <ele>1298</ele>
        <time>2015-01-24T06:58:32.740Z</time>
      </trkpt>
      <trkpt lat="45.22775" lon="5.99331">
        <ele>1300</ele>
        <time>2015-01-24T06:58:44.740Z</time>
      </trkpt>
      <trkpt lat="45.22769" lon="5.99347">
        <ele>1301</ele>
        <time>2015-01-24T06:58:52.540Z</time>
      </trkpt>
      <trkpt lat="45.2276" lon="5.99359">
        <ele>1301</ele>
        <time>2015-01-24T06:59:00.540Z</time>
      </trkpt>
      <trkpt lat="45.22751" lon="5.99363">
        <ele>1302</ele>
        <time>2015-01-24T06:59:08.740Z</time>
      </trkpt>
      <trkpt lat="45.22742" lon="5.9937">
        <ele>1304</ele>
        <time>2015-01-24T06:59:16.540Z</time>
      </trkpt>
      <trkpt lat="45.22733" lon="5.99385">
        <ele>1306</ele>
        <time>2015-01-24T06:59:24.540Z</time>
      </trkpt>
      <trkpt lat="45.22723" lon="5.99391">
        <ele>1307</ele>
        <time>2015-01-24T06:59:32.750Z</time>
      </trkpt>
      <trkpt lat="45.22715" lon="5.99405">
        <ele>1307</ele>
        <time>2015-01-24T06:59:40.540Z</time>
      </trkpt>
      <trkpt lat="45.22705" lon="5.99415">
        <ele>1308</ele>
        <time>2015-01-24T06:59:48.540Z</time>
      </trkpt>
      <trkpt lat="45.22696" lon="5.99422">
        <ele>1310</ele>
        <time>2015-01-24T06:59:56.740Z</time>
      </trkpt>
      <trkpt lat="45.22684" lon="5.99424">
        <ele>1311</ele>
        <time>2015-01-24T07:00:04.540Z</time>
      </trkpt>
      <trkpt lat="45.22669" lon="5.9942">
        <ele>1313</ele>
        <time>2015-01-24T07:00:12.740Z</time>
      </trkpt>
      <trkpt lat="45.22652" lon="5.9943">
        <ele>1316</ele>
        <time>2015-01-24T07:00:24.740Z</time>
      </trkpt>
      <trkpt lat="45.2264" lon="5.99434">
        <ele>1316</ele>
        <time>2015-01-24T07:00:36.740Z</time>
      </trkpt>
      <trkpt lat="45.22626" lon="5.99437">
        <ele>1318</ele>
        <time>2015-01-24T07:00:44.540Z</time>
      </trkpt>
      <trkpt lat="45.22613" lon="5.9945">
        <ele>1319</ele>
        <time>2015-01-24T07:00:56.540Z</time>
      </trkpt>
      <trkpt lat="45.22607" lon="5.99469">
        <ele>1321</ele>
        <time>2015-01-24T07:01:04.540Z</time>
      </trkpt>
      <trkpt lat="45.226" lon="5.99499">
        <ele>1322</ele>
        <time>2015-01-24T07:01:16.540Z</time>
      </trkpt>
      <trkpt lat="45.22588" lon="5.99512">
        <ele>1324</ele>
        <time>2015-01-24T07:01:24.740Z</time>
      </trkpt>
      <trkpt lat="45.22575" lon="5.99517">
        <ele>1326</ele>
        <time>2015-01-24T07:01:32.540Z</time>
      </trkpt>
      <trkpt lat="45.22561" lon="5.99524">
        <ele>1328</ele>
        <time>2015-01-24T07:01:44.540Z</time>
      </trkpt>
      <trkpt lat="45.22547" lon="5.99534">
        <ele>1330</ele>
        <time>2015-01-24T07:01:56.540Z</time>
      </trkpt>
      <trkpt lat="45.2254" lon="5.99552">
        <ele>1332</ele>
        <time>2015-01-24T07:02:04.540Z</time>
      </trkpt>
      <trkpt lat="45.22535" lon="5.99567">
        <ele>1332</ele>
        <time>2015-01-24T07:02:12.740Z</time>
      </trkpt>
      <trkpt lat="45.22529" lon="5.99578">
        <ele>1332</ele>
        <time>2015-01-24T07:02:20.540Z</time>
      </trkpt>
      <trkpt lat="45.22518" lon="5.99584">
        <ele>1334</ele>
        <time>2015-01-24T07:02:28.540Z</time>
      </trkpt>
      <trkpt lat="45.22511" lon="5.99601">
        <ele>1335</ele>
        <time>2015-01-24T07:02:40.540Z</time>
      </trkpt>
      <trkpt lat="45.2251" lon="5.99624">
        <ele>1339</ele>
        <time>2015-01-24T07:02:52.540Z</time>
      </trkpt>
      <trkpt lat="45.22512" lon="5.99644">
        <ele>1340</ele>
        <time>2015-01-24T07:03:04.540Z</time>
      </trkpt>
      <trkpt lat="45.22514" lon="5.99664">
        <ele>1342</ele>
        <time>2015-01-24T07:03:12.740Z</time>
      </trkpt>
      <trkpt lat="45.22518" lon="5.99685">
        <ele>1342</ele>
        <time>2015-01-24T07:03:20.540Z</time>
      </trkpt>
      <trkpt lat="45.22518" lon="5.99703">
        <ele>1343</ele>
        <time>2015-01-24T07:03:28.540Z</time>
      </trkpt>
      <trkpt lat="45.22509" lon="5.99715">
        <ele>1344</ele>
        <time>2015-01-24T07:03:36.740Z</time>
      </trkpt>
      <trkpt lat="45.22504" lon="5.99737">
        <ele>1346</ele>
        <time>2015-01-24T07:03:44.540Z</time>
      </trkpt>
      <trkpt lat="45.22503" lon="5.99755">
        <ele>1347</ele>
        <time>2015-01-24T07:03:52.540Z</time>
      </trkpt>
      <trkpt lat="45.22505" lon="5.99773">
        <ele>1347</ele>
        <time>2015-01-24T07:04:00.540Z</time>
      </trkpt>
      <trkpt lat="45.22503" lon="5.99792">
        <ele>1348</ele>
        <time>2015-01-24T07:04:08.540Z</time>
      </trkpt>
      <trkpt lat="45.22496" lon="5.99808">
        <ele>1348</ele>
        <time>2015-01-24T07:04:16.540Z</time>
      </trkpt>
      <trkpt lat="45.22488" lon="5.99821">
        <ele>1349</ele>
        <time>2015-01-24T07:04:24.540Z</time>
      </trkpt>
      <trkpt lat="45.22478" lon="5.99831">
        <ele>1350</ele>
        <time>2015-01-24T07:04:32.540Z</time>
      </trkpt>
      <trkpt lat="45.22461" lon="5.99841">
        <ele>1351</ele>
        <time>2015-01-24T07:04:44.540Z</time>
      </trkpt>
      <trkpt lat="45.22451" lon="5.99845">
        <ele>1352</ele>
        <time>2015-01-24T07:04:52.740Z</time>
      </trkpt>
      <trkpt lat="45.22446" lon="5.9986">
        <ele>1352</ele>
        <time>2015-01-24T07:05:00.540Z</time>
      </trkpt>
      <trkpt lat="45.22445" lon="5.99882">
        <ele>1355</ele>
        <time>2015-01-24T07:05:12.540Z</time>
      </trkpt>
      <trkpt lat="45.22455" lon="5.99894">
        <ele>1355</ele>
        <time>2015-01-24T07:05:20.540Z</time>
      </trkpt>
      <trkpt lat="45.22459" lon="5.99908">
        <ele>1356</ele>
        <time>2015-01-24T07:05:28.740Z</time>
      </trkpt>
      <trkpt lat="45.22466" lon="5.99921">
        <ele>1358</ele>
        <time>2015-01-24T07:05:40.740Z</time>
      </trkpt>
      <trkpt lat="45.22463" lon="5.99951">
        <ele>1366.1599872</ele>
        <time>2015-01-24T07:05:56.340Z</time>
      </trkpt>
      <trkpt lat="45.22453" lon="5.99966">
        <ele>1370</ele>
        <time>2015-01-24T07:06:12.540Z</time>
      </trkpt>
      <trkpt lat="45.2245" lon="5.99981">
        <ele>1370</ele>
        <time>2015-01-24T07:06:20.540Z</time>
      </trkpt>
      <trkpt lat="45.22452" lon="5.99998">
        <ele>1374</ele>
        <time>2015-01-24T07:06:32.540Z</time>
      </trkpt>
      <trkpt lat="45.22442" lon="5.99999">
        <ele>1374</ele>
        <time>2015-01-24T07:06:40.740Z</time>
      </trkpt>
      <trkpt lat="45.22436" lon="6.00013">
        <ele>1376</ele>
        <time>2015-01-24T07:07:06.540Z</time>
      </trkpt>
      <trkpt lat="45.22436" lon="6.00027">
        <ele>1378</ele>
        <time>2015-01-24T07:07:18.540Z</time>
      </trkpt>
      <trkpt lat="45.22434" lon="6.00043">
        <ele>1382</ele>
        <time>2015-01-24T07:07:38.540Z</time>
      </trkpt>
      <trkpt lat="45.22424" lon="6.00055">
        <ele>1388</ele>
        <time>2015-01-24T07:07:54.540Z</time>
      </trkpt>
      <trkpt lat="45.22416" lon="6.00067">
        <ele>1390</ele>
        <time>2015-01-24T07:08:10.740Z</time>
      </trkpt>
      <trkpt lat="45.22418" lon="6.00082">
        <ele>1392</ele>
        <time>2015-01-24T07:08:18.540Z</time>
      </trkpt>
      <trkpt lat="45.22406" lon="6.00093">
        <ele>1398</ele>
        <time>2015-01-24T07:08:38.540Z</time>
      </trkpt>
      <trkpt lat="45.22402" lon="6.00107">
        <ele>1400</ele>
        <time>2015-01-24T07:08:50.540Z</time>
      </trkpt>
      <trkpt lat="45.22396" lon="6.00119">
        <ele>1405</ele>
        <time>2015-01-24T07:09:14.540Z</time>
      </trkpt>
      <trkpt lat="45.22382" lon="6.00117">
        <ele>1407</ele>
        <time>2015-01-24T07:09:23.540Z</time>
      </trkpt>
      <trkpt lat="45.2238" lon="6.00133">
        <ele>1408</ele>
        <time>2015-01-24T07:09:36.740Z</time>
      </trkpt>
      <trkpt lat="45.22369" lon="6.00139">
        <ele>1411</ele>
        <time>2015-01-24T07:09:44.540Z</time>
      </trkpt>
      <trkpt lat="45.22374" lon="6.00154">
        <ele>1414</ele>
        <time>2015-01-24T07:10:16.540Z</time>
      </trkpt>
      <trkpt lat="45.2237" lon="6.0014">
        <ele>1415</ele>
        <time>2015-01-24T07:10:42.740Z</time>
      </trkpt>
      <trkpt lat="45.22364" lon="6.00161">
        <ele>1417</ele>
        <time>2015-01-24T07:10:54.740Z</time>
      </trkpt>
      <trkpt lat="45.22356" lon="6.00176">
        <ele>1418</ele>
        <time>2015-01-24T07:11:02.540Z</time>
      </trkpt>
      <trkpt lat="45.22347" lon="6.00188">
        <ele>1418</ele>
        <time>2015-01-24T07:11:10.540Z</time>
      </trkpt>
      <trkpt lat="45.22333" lon="6.00197">
        <ele>1422</ele>
        <time>2015-01-24T07:11:22.540Z</time>
      </trkpt>
      <trkpt lat="45.22319" lon="6.00202">
        <ele>1423</ele>
        <time>2015-01-24T07:11:34.540Z</time>
      </trkpt>
      <trkpt lat="45.22308" lon="6.00213">
        <ele>1425</ele>
        <time>2015-01-24T07:11:46.540Z</time>
      </trkpt>
      <trkpt lat="45.22313" lon="6.00225">
        <ele>1429</ele>
        <time>2015-01-24T07:11:54.740Z</time>
      </trkpt>
      <trkpt lat="45.22314" lon="6.00239">
        <ele>1437</ele>
        <time>2015-01-24T07:12:14.540Z</time>
      </trkpt>
      <trkpt lat="45.22322" lon="6.00259">
        <ele>1440</ele>
        <time>2015-01-24T07:12:22.540Z</time>
      </trkpt>
      <trkpt lat="45.22329" lon="6.00271">
        <ele>1442</ele>
        <time>2015-01-24T07:12:34.540Z</time>
      </trkpt>
      <trkpt lat="45.22328" lon="6.00288">
        <ele>1443</ele>
        <time>2015-01-24T07:12:42.740Z</time>
      </trkpt>
      <trkpt lat="45.2232" lon="6.00299">
        <ele>1443</ele>
        <time>2015-01-24T07:12:50.540Z</time>
      </trkpt>
      <trkpt lat="45.2231" lon="6.00313">
        <ele>1448</ele>
        <time>2015-01-24T07:12:58.540Z</time>
      </trkpt>
      <trkpt lat="45.22307" lon="6.00329">
        <ele>1451</ele>
        <time>2015-01-24T07:13:10.540Z</time>
      </trkpt>
      <trkpt lat="45.22313" lon="6.00345">
        <ele>1452</ele>
        <time>2015-01-24T07:13:22.540Z</time>
      </trkpt>
      <trkpt lat="45.22305" lon="6.00355">
        <ele>1452</ele>
        <time>2015-01-24T07:13:30.740Z</time>
      </trkpt>
      <trkpt lat="45.22294" lon="6.00365">
        <ele>1458</ele>
        <time>2015-01-24T07:13:38.540Z</time>
      </trkpt>
      <trkpt lat="45.22289" lon="6.00381">
        <ele>1460.7800064</ele>
        <time>2015-01-24T07:13:46.540Z</time>
      </trkpt>
      <trkpt lat="45.22284" lon="6.00397">
        <ele>1467.9702937673</ele>
        <time>2015-01-24T07:14:06.740Z</time>
      </trkpt>
      <trkpt lat="45.22271" lon="6.00403">
        <ele>1473</ele>
        <time>2015-01-24T07:14:18.740Z</time>
      </trkpt>
      <trkpt lat="45.22281" lon="6.00412">
        <ele>1476</ele>
        <time>2015-01-24T07:14:34.540Z</time>
      </trkpt>
      <trkpt lat="45.22277" lon="6.00427">
        <ele>1478</ele>
        <time>2015-01-24T07:14:42.740Z</time>
      </trkpt>
      <trkpt lat="45.22261" lon="6.00428">
        <ele>1482</ele>
        <time>2015-01-24T07:14:54.740Z</time>
      </trkpt>
      <trkpt lat="45.22251" lon="6.00428">
        <ele>1484</ele>
        <time>2015-01-24T07:15:02.540Z</time>
      </trkpt>
      <trkpt lat="45.2224" lon="6.00424">
        <ele>1489</ele>
        <time>2015-01-24T07:15:18.740Z</time>
      </trkpt>
      <trkpt lat="45.22228" lon="6.00436">
        <ele>1492</ele>
        <time>2015-01-24T07:15:30.740Z</time>
      </trkpt>
      <trkpt lat="45.22225" lon="6.00454">
        <ele>1496</ele>
        <time>2015-01-24T07:15:42.750Z</time>
      </trkpt>
      <trkpt lat="45.22233" lon="6.00466">
        <ele>1499</ele>
        <time>2015-01-24T07:15:54.740Z</time>
      </trkpt>
      <trkpt lat="45.22231" lon="6.00483">
        <ele>1501</ele>
        <time>2015-01-24T07:16:02.540Z</time>
      </trkpt>
      <trkpt lat="45.22242" lon="6.00493">
        <ele>1503</ele>
        <time>2015-01-24T07:16:10.540Z</time>
      </trkpt>
      <trkpt lat="45.22236" lon="6.00505">
        <ele>1507</ele>
        <time>2015-01-24T07:16:30.740Z</time>
      </trkpt>
      <trkpt lat="45.22226" lon="6.00509">
        <ele>1508</ele>
        <time>2015-01-24T07:16:38.540Z</time>
      </trkpt>
      <trkpt lat="45.22223" lon="6.00523">
        <ele>1514</ele>
        <time>2015-01-24T07:16:54.740Z</time>
      </trkpt>
      <trkpt lat="45.22226" lon="6.0054">
        <ele>1517</ele>
        <time>2015-01-24T07:17:02.340Z</time>
      </trkpt>
      <trkpt lat="45.2223" lon="6.00556">
        <ele>1523</ele>
        <time>2015-01-24T07:17:22.540Z</time>
      </trkpt>
      <trkpt lat="45.2223" lon="6.00573">
        <ele>1524</ele>
        <time>2015-01-24T07:17:30.740Z</time>
      </trkpt>
      <trkpt lat="45.22235" lon="6.00588">
        <ele>1529</ele>
        <time>2015-01-24T07:17:42.740Z</time>
      </trkpt>
      <trkpt lat="45.22226" lon="6.00609">
        <ele>1536</ele>
        <time>2015-01-24T07:18:06.740Z</time>
      </trkpt>
      <trkpt lat="45.22222" lon="6.00625">
        <ele>1537</ele>
        <time>2015-01-24T07:18:14.540Z</time>
      </trkpt>
      <trkpt lat="45.22216" lon="6.00634">
        <ele>1538</ele>
        <time>2015-01-24T07:18:22.540Z</time>
      </trkpt>
      <trkpt lat="45.22213" lon="6.00645">
        <ele>1538</ele>
        <time>2015-01-24T07:18:30.540Z</time>
      </trkpt>
      <trkpt lat="45.22212" lon="6.00655">
        <ele>1539</ele>
        <time>2015-01-24T07:18:38.540Z</time>
      </trkpt>
      <trkpt lat="45.22213" lon="6.00669">
        <ele>1540</ele>
        <time>2015-01-24T07:18:46.540Z</time>
      </trkpt>
      <trkpt lat="45.22216" lon="6.0069">
        <ele>1542</ele>
        <time>2015-01-24T07:18:58.540Z</time>
      </trkpt>
      <trkpt lat="45.22219" lon="6.00703">
        <ele>1544</ele>
        <time>2015-01-24T07:19:06.740Z</time>
      </trkpt>
      <trkpt lat="45.22215" lon="6.00722">
        <ele>1549</ele>
        <time>2015-01-24T07:19:22.540Z</time>
      </trkpt>
      <trkpt lat="45.22203" lon="6.00722">
        <ele>1551</ele>
        <time>2015-01-24T07:19:38.540Z</time>
      </trkpt>
      <trkpt lat="45.22193" lon="6.00716">
        <ele>1554.7800064</ele>
        <time>2015-01-24T07:19:46.540Z</time>
      </trkpt>
      <trkpt lat="45.22192" lon="6.00731">
        <ele>1556</ele>
        <time>2015-01-24T07:19:58.540Z</time>
      </trkpt>
      <trkpt lat="45.22197" lon="6.00748">
        <ele>1560.9599872</ele>
        <time>2015-01-24T07:20:06.740Z</time>
      </trkpt>
      <trkpt lat="45.22199" lon="6.00762">
        <ele>1562</ele>
        <time>2015-01-24T07:20:14.540Z</time>
      </trkpt>
      <trkpt lat="45.22202" lon="6.00781">
        <ele>1564</ele>
        <time>2015-01-24T07:20:26.540Z</time>
      </trkpt>
      <trkpt lat="45.22209" lon="6.00793">
        <ele>1566</ele>
        <time>2015-01-24T07:20:34.540Z</time>
      </trkpt>
      <trkpt lat="45.22215" lon="6.00806">
        <ele>1570.7156043027</ele>
        <time>2015-01-24T07:20:46.540Z</time>
      </trkpt>
      <trkpt lat="45.22223" lon="6.00818">
        <ele>1572</ele>
        <time>2015-01-24T07:20:54.740Z</time>
      </trkpt>
      <trkpt lat="45.22232" lon="6.0083">
        <ele>1575</ele>
        <time>2015-01-24T07:21:02.540Z</time>
      </trkpt>
      <trkpt lat="45.22236" lon="6.00847">
        <ele>1580</ele>
        <time>2015-01-24T07:21:18.740Z</time>
      </trkpt>
      <trkpt lat="45.22246" lon="6.00865">
        <ele>1583</ele>
        <time>2015-01-24T07:21:30.740Z</time>
      </trkpt>
      <trkpt lat="45.2225" lon="6.00878">
        <ele>1585</ele>
        <time>2015-01-24T07:21:42.740Z</time>
      </trkpt>
      <trkpt lat="45.22252" lon="6.00894">
        <ele>1585</ele>
        <time>2015-01-24T07:21:50.540Z</time>
      </trkpt>
      <trkpt lat="45.22258" lon="6.00912">
        <ele>1592</ele>
        <time>2015-01-24T07:22:02.540Z</time>
      </trkpt>
      <trkpt lat="45.22264" lon="6.00923">
        <ele>1596</ele>
        <time>2015-01-24T07:22:14.540Z</time>
      </trkpt>
      <trkpt lat="45.22252" lon="6.00927">
        <ele>1598</ele>
        <time>2015-01-24T07:22:26.540Z</time>
      </trkpt>
      <trkpt lat="45.22243" lon="6.00932">
        <ele>1599</ele>
        <time>2015-01-24T07:22:38.540Z</time>
      </trkpt>
      <trkpt lat="45.22235" lon="6.00942">
        <ele>1606</ele>
        <time>2015-01-24T07:22:54.740Z</time>
      </trkpt>
      <trkpt lat="45.22235" lon="6.00959">
        <ele>1609.9799936</ele>
        <time>2015-01-24T07:23:06.740Z</time>
      </trkpt>
      <trkpt lat="45.22234" lon="6.00974">
        <ele>1611</ele>
        <time>2015-01-24T07:23:18.740Z</time>
      </trkpt>
      <trkpt lat="45.22237" lon="6.00991">
        <ele>1617</ele>
        <time>2015-01-24T07:23:30.740Z</time>
      </trkpt>
      <trkpt lat="45.22238" lon="6.01009">
        <ele>1619</ele>
        <time>2015-01-24T07:23:38.260Z</time>
      </trkpt>
      <trkpt lat="45.22231" lon="6.01026">
        <ele>1622</ele>
        <time>2015-01-24T07:23:54.740Z</time>
      </trkpt>
      <trkpt lat="45.22235" lon="6.01045">
        <ele>1623</ele>
        <time>2015-01-24T07:24:06.740Z</time>
      </trkpt>
      <trkpt lat="45.22241" lon="6.01066">
        <ele>1624</ele>
        <time>2015-01-24T07:24:18.740Z</time>
      </trkpt>
      <trkpt lat="45.2224" lon="6.01081">
        <ele>1626</ele>
        <time>2015-01-24T07:24:30.740Z</time>
      </trkpt>
      <trkpt lat="45.22236" lon="6.01095">
        <ele>1630</ele>
        <time>2015-01-24T07:24:38.540Z</time>
      </trkpt>
      <trkpt lat="45.22239" lon="6.01112">
        <ele>1632</ele>
        <time>2015-01-24T07:24:50.540Z</time>
      </trkpt>
      <trkpt lat="45.22243" lon="6.01128">
        <ele>1636</ele>
        <time>2015-01-24T07:24:58.540Z</time>
      </trkpt>
      <trkpt lat="45.22246" lon="6.01146">
        <ele>1638</ele>
        <time>2015-01-24T07:25:14.540Z</time>
      </trkpt>
      <trkpt lat="45.22252" lon="6.01157">
        <ele>1641</ele>
        <time>2015-01-24T07:25:22.540Z</time>
      </trkpt>
      <trkpt lat="45.2226" lon="6.01167">
        <ele>1644</ele>
        <time>2015-01-24T07:25:34.540Z</time>
      </trkpt>
      <trkpt lat="45.2225" lon="6.01255">
        <ele>1667</ele>
        <time>2015-01-24T07:26:57.240Z</time>
      </trkpt>
      <trkpt lat="45.22247" lon="6.01272">
        <ele>1669</ele>
        <time>2015-01-24T07:27:04.640Z</time>
      </trkpt>
      <trkpt lat="45.22258" lon="6.0127">
        <ele>1671</ele>
        <time>2015-01-24T07:27:16.640Z</time>
      </trkpt>
      <trkpt lat="45.22272" lon="6.01275">
        <ele>1677</ele>
        <time>2015-01-24T07:27:36.640Z</time>
      </trkpt>
      <trkpt lat="45.22288" lon="6.01271">
        <ele>1679</ele>
        <time>2015-01-24T07:27:48.540Z</time>
      </trkpt>
      <trkpt lat="45.223" lon="6.01278">
        <ele>1681</ele>
        <time>2015-01-24T07:27:56.640Z</time>
      </trkpt>
      <trkpt lat="45.22302" lon="6.01296">
        <ele>1683</ele>
        <time>2015-01-24T07:28:08.640Z</time>
      </trkpt>
      <trkpt lat="45.22298" lon="6.01309">
        <ele>1685</ele>
        <time>2015-01-24T07:28:16.740Z</time>
      </trkpt>
      <trkpt lat="45.22292" lon="6.01321">
        <ele>1688</ele>
        <time>2015-01-24T07:28:24.540Z</time>
      </trkpt>
      <trkpt lat="45.22299" lon="6.01334">
        <ele>1691</ele>
        <time>2015-01-24T07:28:32.540Z</time>
      </trkpt>
      <trkpt lat="45.22293" lon="6.01352">
        <ele>1691</ele>
        <time>2015-01-24T07:28:44.740Z</time>
      </trkpt>
      <trkpt lat="45.22277" lon="6.01351">
        <ele>1693</ele>
        <time>2015-01-24T07:28:57.540Z</time>
      </trkpt>
      <trkpt lat="45.22267" lon="6.01356">
        <ele>1698</ele>
        <time>2015-01-24T07:29:11.540Z</time>
      </trkpt>
      <trkpt lat="45.22258" lon="6.01374">
        <ele>1700</ele>
        <time>2015-01-24T07:29:23.540Z</time>
      </trkpt>
      <trkpt lat="45.22255" lon="6.01394">
        <ele>1702.64</ele>
        <time>2015-01-24T07:29:31.640Z</time>
      </trkpt>
      <trkpt lat="45.22245" lon="6.01407">
        <ele>1705</ele>
        <time>2015-01-24T07:29:39.740Z</time>
      </trkpt>
      <trkpt lat="45.22251" lon="6.01428">
        <ele>1707.9800064</ele>
        <time>2015-01-24T07:29:51.740Z</time>
      </trkpt>
      <trkpt lat="45.22258" lon="6.01451">
        <ele>1710</ele>
        <time>2015-01-24T07:30:07.640Z</time>
      </trkpt>
      <trkpt lat="45.22263" lon="6.01469">
        <ele>1710</ele>
        <time>2015-01-24T07:30:15.740Z</time>
      </trkpt>
      <trkpt lat="45.22265" lon="6.01496">
        <ele>1711</ele>
        <time>2015-01-24T07:30:27.740Z</time>
      </trkpt>
      <trkpt lat="45.2227" lon="6.01511">
        <ele>1711</ele>
        <time>2015-01-24T07:30:35.540Z</time>
      </trkpt>
      <trkpt lat="45.22273" lon="6.01525">
        <ele>1711</ele>
        <time>2015-01-24T07:30:43.640Z</time>
      </trkpt>
      <trkpt lat="45.22279" lon="6.01539">
        <ele>1711</ele>
        <time>2015-01-24T07:30:51.740Z</time>
      </trkpt>
      <trkpt lat="45.22277" lon="6.01564">
        <ele>1711</ele>
        <time>2015-01-24T07:30:59.540Z</time>
      </trkpt>
      <trkpt lat="45.22276" lon="6.01585">
        <ele>1711</ele>
        <time>2015-01-24T07:31:07.640Z</time>
      </trkpt>
      <trkpt lat="45.22276" lon="6.01599">
        <ele>1712</ele>
        <time>2015-01-24T07:31:15.740Z</time>
      </trkpt>
      <trkpt lat="45.22282" lon="6.01617">
        <ele>1712</ele>
        <time>2015-01-24T07:31:23.540Z</time>
      </trkpt>
      <trkpt lat="45.22288" lon="6.01657">
        <ele>1710</ele>
        <time>2015-01-24T07:31:35.540Z</time>
      </trkpt>
      <trkpt lat="45.22286" lon="6.01678">
        <ele>1709</ele>
        <time>2015-01-24T07:31:43.640Z</time>
      </trkpt>
      <trkpt lat="45.22285" lon="6.017">
        <ele>1709</ele>
        <time>2015-01-24T07:31:51.740Z</time>
      </trkpt>
      <trkpt lat="45.22289" lon="6.01714">
        <ele>1709</ele>
        <time>2015-01-24T07:31:59.640Z</time>
      </trkpt>
      <trkpt lat="45.22288" lon="6.01728">
        <ele>1708</ele>
        <time>2015-01-24T07:32:07.740Z</time>
      </trkpt>
      <trkpt lat="45.22287" lon="6.01744">
        <ele>1708</ele>
        <time>2015-01-24T07:32:15.350Z</time>
      </trkpt>
      <trkpt lat="45.22288" lon="6.01759">
        <ele>1710</ele>
        <time>2015-01-24T07:32:27.640Z</time>
      </trkpt>
      <trkpt lat="45.22289" lon="6.01775">
        <ele>1718</ele>
        <time>2015-01-24T07:32:47.640Z</time>
      </trkpt>
      <trkpt lat="45.22287" lon="6.01791">
        <ele>1719</ele>
        <time>2015-01-24T07:32:59.640Z</time>
      </trkpt>
      <trkpt lat="45.2228" lon="6.01802">
        <ele>1724</ele>
        <time>2015-01-24T07:33:19.740Z</time>
      </trkpt>
      <trkpt lat="45.22272" lon="6.01818">
        <ele>1725</ele>
        <time>2015-01-24T07:33:27.640Z</time>
      </trkpt>
      <trkpt lat="45.22266" lon="6.01831">
        <ele>1725</ele>
        <time>2015-01-24T07:33:35.640Z</time>
      </trkpt>
      <trkpt lat="45.22267" lon="6.01848">
        <ele>1727</ele>
        <time>2015-01-24T07:33:43.740Z</time>
      </trkpt>
      <trkpt lat="45.22265" lon="6.01869">
        <ele>1728.9600128</ele>
        <time>2015-01-24T07:33:51.740Z</time>
      </trkpt>
      <trkpt lat="45.22268" lon="6.01882">
        <ele>1730</ele>
        <time>2015-01-24T07:34:03.740Z</time>
      </trkpt>
      <trkpt lat="45.22269" lon="6.01899">
        <ele>1732</ele>
        <time>2015-01-24T07:34:15.740Z</time>
      </trkpt>
      <trkpt lat="45.22265" lon="6.01914">
        <ele>1733.0199936</ele>
        <time>2015-01-24T07:34:27.740Z</time>
      </trkpt>
      <trkpt lat="45.22265" lon="6.01935">
        <ele>1734</ele>
        <time>2015-01-24T07:35:43.740Z</time>
      </trkpt>
      <trkpt lat="45.22269" lon="6.01952">
        <ele>1734</ele>
        <time>2015-01-24T07:35:51.740Z</time>
      </trkpt>
      <trkpt lat="45.22273" lon="6.01972">
        <ele>1735</ele>
        <time>2015-01-24T07:36:03.740Z</time>
      </trkpt>
      <trkpt lat="45.22272" lon="6.01983">
        <ele>1736.9600128</ele>
        <time>2015-01-24T07:36:11.740Z</time>
      </trkpt>
      <trkpt lat="45.2227" lon="6.01997">
        <ele>1737</ele>
        <time>2015-01-24T07:36:19.740Z</time>
      </trkpt>
      <trkpt lat="45.22269" lon="6.02007">
        <ele>1742</ele>
        <time>2015-01-24T07:36:27.740Z</time>
      </trkpt>
      <trkpt lat="45.22268" lon="6.02025">
        <ele>1744</ele>
        <time>2015-01-24T07:36:39.740Z</time>
      </trkpt>
      <trkpt lat="45.22263" lon="6.02042">
        <ele>1747.9800064</ele>
        <time>2015-01-24T07:36:51.740Z</time>
      </trkpt>
      <trkpt lat="45.2227" lon="6.02057">
        <ele>1752</ele>
        <time>2015-01-24T07:37:03.640Z</time>
      </trkpt>
      <trkpt lat="45.22278" lon="6.02062">
        <ele>1753.88</ele>
        <time>2015-01-24T07:37:11.640Z</time>
      </trkpt>
      <trkpt lat="45.22277" lon="6.02073">
        <ele>1753.12</ele>
        <time>2015-01-24T07:37:19.640Z</time>
      </trkpt>
      <trkpt lat="45.22276" lon="6.02086">
        <ele>1755</ele>
        <time>2015-01-24T07:37:27.640Z</time>
      </trkpt>
      <trkpt lat="45.22274" lon="6.02104">
        <ele>1756</ele>
        <time>2015-01-24T07:37:35.640Z</time>
      </trkpt>
      <trkpt lat="45.22272" lon="6.02128">
        <ele>1758</ele>
        <time>2015-01-24T07:37:43.640Z</time>
      </trkpt>
      <trkpt lat="45.22263" lon="6.0215">
        <ele>1759.76</ele>
        <time>2015-01-24T07:37:51.640Z</time>
      </trkpt>
      <trkpt lat="45.22255" lon="6.02167">
        <ele>1759</ele>
        <time>2015-01-24T07:37:59.640Z</time>
      </trkpt>
      <trkpt lat="45.2225" lon="6.02184">
        <ele>1763</ele>
        <time>2015-01-24T07:38:07.640Z</time>
      </trkpt>
      <trkpt lat="45.22244" lon="6.02205">
        <ele>1764</ele>
        <time>2015-01-24T07:38:19.640Z</time>
      </trkpt>
      <trkpt lat="45.2224" lon="6.02225">
        <ele>1765.76</ele>
        <time>2015-01-24T07:38:31.640Z</time>
      </trkpt>
      <trkpt lat="45.22235" lon="6.02239">
        <ele>1765</ele>
        <time>2015-01-24T07:38:39.640Z</time>
      </trkpt>
      <trkpt lat="45.22231" lon="6.02255">
        <ele>1766</ele>
        <time>2015-01-24T07:38:47.640Z</time>
      </trkpt>
      <trkpt lat="45.22229" lon="6.02273">
        <ele>1766</ele>
        <time>2015-01-24T07:38:55.640Z</time>
      </trkpt>
      <trkpt lat="45.22229" lon="6.02286">
        <ele>1766</ele>
        <time>2015-01-24T07:39:03.640Z</time>
      </trkpt>
      <trkpt lat="45.22232" lon="6.023">
        <ele>1766.8712898892</ele>
        <time>2015-01-24T07:39:11.640Z</time>
      </trkpt>
      <trkpt lat="45.22239" lon="6.02312">
        <ele>1766</ele>
        <time>2015-01-24T07:39:19.640Z</time>
      </trkpt>
      <trkpt lat="45.22243" lon="6.02327">
        <ele>1766</ele>
        <time>2015-01-24T07:39:27.640Z</time>
      </trkpt>
      <trkpt lat="45.22241" lon="6.02342">
        <ele>1766</ele>
        <time>2015-01-24T07:39:35.640Z</time>
      </trkpt>
      <trkpt lat="45.22237" lon="6.02355">
        <ele>1768</ele>
        <time>2015-01-24T07:39:43.640Z</time>
      </trkpt>
      <trkpt lat="45.22235" lon="6.02373">
        <ele>1769</ele>
        <time>2015-01-24T07:39:55.640Z</time>
      </trkpt>
      <trkpt lat="45.22229" lon="6.02387">
        <ele>1770</ele>
        <time>2015-01-24T07:40:07.640Z</time>
      </trkpt>
      <trkpt lat="45.22218" lon="6.02398">
        <ele>1771.12</ele>
        <time>2015-01-24T07:40:19.640Z</time>
      </trkpt>
      <trkpt lat="45.22209" lon="6.02407">
        <ele>1777.76</ele>
        <time>2015-01-24T07:40:31.640Z</time>
      </trkpt>
      <trkpt lat="45.22197" lon="6.02412">
        <ele>1779</ele>
        <time>2015-01-24T07:40:43.640Z</time>
      </trkpt>
      <trkpt lat="45.222" lon="6.02425">
        <ele>1782</ele>
        <time>2015-01-24T07:41:03.740Z</time>
      </trkpt>
      <trkpt lat="45.22209" lon="6.02434">
        <ele>1783.5599872</ele>
        <time>2015-01-24T07:41:11.540Z</time>
      </trkpt>
      <trkpt lat="45.2222" lon="6.02439">
        <ele>1788</ele>
        <time>2015-01-24T07:41:27.740Z</time>
      </trkpt>
      <trkpt lat="45.2223" lon="6.02443">
        <ele>1787</ele>
        <time>2015-01-24T07:41:39.740Z</time>
      </trkpt>
      <trkpt lat="45.22241" lon="6.02445">
        <ele>1791.9400192</ele>
        <time>2015-01-24T07:41:51.740Z</time>
      </trkpt>
      <trkpt lat="45.22252" lon="6.02449">
        <ele>1795</ele>
        <time>2015-01-24T07:42:03.740Z</time>
      </trkpt>
      <trkpt lat="45.2226" lon="6.02458">
        <ele>1797.5599872</ele>
        <time>2015-01-24T07:42:11.540Z</time>
      </trkpt>
      <trkpt lat="45.22275" lon="6.02461">
        <ele>1800.5599872</ele>
        <time>2015-01-24T07:42:31.540Z</time>
      </trkpt>
      <trkpt lat="45.22286" lon="6.0247">
        <ele>1803</ele>
        <time>2015-01-24T07:42:47.540Z</time>
      </trkpt>
      <trkpt lat="45.22286" lon="6.02489">
        <ele>1811</ele>
        <time>2015-01-24T07:43:07.540Z</time>
      </trkpt>
      <trkpt lat="45.22274" lon="6.02495">
        <ele>1815</ele>
        <time>2015-01-24T07:43:27.740Z</time>
      </trkpt>
      <trkpt lat="45.22269" lon="6.02507">
        <ele>1820</ele>
        <time>2015-01-24T07:43:47.540Z</time>
      </trkpt>
      <trkpt lat="45.22278" lon="6.02517">
        <ele>1822</ele>
        <time>2015-01-24T07:43:55.540Z</time>
      </trkpt>
      <trkpt lat="45.2229" lon="6.0252">
        <ele>1824</ele>
        <time>2015-01-24T07:44:07.540Z</time>
      </trkpt>
      <trkpt lat="45.22301" lon="6.02527">
        <ele>1826</ele>
        <time>2015-01-24T07:44:15.740Z</time>
      </trkpt>
      <trkpt lat="45.22295" lon="6.02534">
        <ele>1830</ele>
        <time>2015-01-24T07:44:27.740Z</time>
      </trkpt>
      <trkpt lat="45.22281" lon="6.02538">
        <ele>1831</ele>
        <time>2015-01-24T07:44:39.740Z</time>
      </trkpt>
      <trkpt lat="45.22272" lon="6.02546">
        <ele>1833</ele>
        <time>2015-01-24T07:44:47.540Z</time>
      </trkpt>
      <trkpt lat="45.22264" lon="6.02554">
        <ele>1835</ele>
        <time>2015-01-24T07:44:55.540Z</time>
      </trkpt>
      <trkpt lat="45.22254" lon="6.02558">
        <ele>1838.7799936</ele>
        <time>2015-01-24T07:45:11.540Z</time>
      </trkpt>
      <trkpt lat="45.22245" lon="6.02564">
        <ele>1839</ele>
        <time>2015-01-24T07:45:19.540Z</time>
      </trkpt>
      <trkpt lat="45.22256" lon="6.02566">
        <ele>1842.9800064</ele>
        <time>2015-01-24T07:45:51.740Z</time>
      </trkpt>
      <trkpt lat="45.22267" lon="6.02568">
        <ele>1844</ele>
        <time>2015-01-24T07:46:03.740Z</time>
      </trkpt>
      <trkpt lat="45.22279" lon="6.02574">
        <ele>1845</ele>
        <time>2015-01-24T07:46:15.740Z</time>
      </trkpt>
      <trkpt lat="45.22291" lon="6.02578">
        <ele>1846.5599872</ele>
        <time>2015-01-24T07:46:31.540Z</time>
      </trkpt>
      <trkpt lat="45.223" lon="6.02584">
        <ele>1848</ele>
        <time>2015-01-24T07:46:47.540Z</time>
      </trkpt>
      <trkpt lat="45.22316" lon="6.02587">
        <ele>1850</ele>
        <time>2015-01-24T07:46:59.340Z</time>
      </trkpt>
      <trkpt lat="45.22326" lon="6.02596">
        <ele>1854</ele>
        <time>2015-01-24T07:47:27.740Z</time>
      </trkpt>
      <trkpt lat="45.22338" lon="6.026">
        <ele>1857</ele>
        <time>2015-01-24T07:47:47.540Z</time>
      </trkpt>
      <trkpt lat="45.2235" lon="6.02605">
        <ele>1860</ele>
        <time>2015-01-24T07:48:07.540Z</time>
      </trkpt>
      <trkpt lat="45.22361" lon="6.0261">
        <ele>1866</ele>
        <time>2015-01-24T07:48:23.540Z</time>
      </trkpt>
      <trkpt lat="45.22371" lon="6.02612">
        <ele>1867.5599872</ele>
        <time>2015-01-24T07:48:31.540Z</time>
      </trkpt>
      <trkpt lat="45.22379" lon="6.02614">
        <ele>1868</ele>
        <time>2015-01-24T07:48:39.540Z</time>
      </trkpt>
      <trkpt lat="45.22389" lon="6.02619">
        <ele>1870.5599872</ele>
        <time>2015-01-24T07:48:51.540Z</time>
      </trkpt>
      <trkpt lat="45.22399" lon="6.02622">
        <ele>1874</ele>
        <time>2015-01-24T07:49:03.550Z</time>
      </trkpt>
      <trkpt lat="45.22409" lon="6.02629">
        <ele>1876</ele>
        <time>2015-01-24T07:49:15.540Z</time>
      </trkpt>
      <trkpt lat="45.2242" lon="6.02632">
        <ele>1878</ele>
        <time>2015-01-24T07:49:23.540Z</time>
      </trkpt>
      <trkpt lat="45.22409" lon="6.02641">
        <ele>1879</ele>
        <time>2015-01-24T07:49:43.740Z</time>
      </trkpt>
      <trkpt lat="45.22395" lon="6.0264">
        <ele>1881</ele>
        <time>2015-01-24T07:49:55.740Z</time>
      </trkpt>
      <trkpt lat="45.22386" lon="6.02653">
        <ele>1886</ele>
        <time>2015-01-24T07:50:27.540Z</time>
      </trkpt>
      <trkpt lat="45.22377" lon="6.02661">
        <ele>1889</ele>
        <time>2015-01-24T07:50:47.540Z</time>
      </trkpt>
      <trkpt lat="45.22386" lon="6.02668">
        <ele>1890</ele>
        <time>2015-01-24T07:50:59.540Z</time>
      </trkpt>
      <trkpt lat="45.224" lon="6.02672">
        <ele>1893.5599872</ele>
        <time>2015-01-24T07:51:11.540Z</time>
      </trkpt>
      <trkpt lat="45.22413" lon="6.02674">
        <ele>1896</ele>
        <time>2015-01-24T07:51:27.540Z</time>
      </trkpt>
      <trkpt lat="45.22426" lon="6.02677">
        <ele>1899</ele>
        <time>2015-01-24T07:51:39.540Z</time>
      </trkpt>
      <trkpt lat="45.22436" lon="6.02686">
        <ele>1903.5599872</ele>
        <time>2015-01-24T07:51:51.540Z</time>
      </trkpt>
      <trkpt lat="45.22444" lon="6.02698">
        <ele>1905</ele>
        <time>2015-01-24T07:52:07.740Z</time>
      </trkpt>
      <trkpt lat="45.22432" lon="6.02703">
        <ele>1906</ele>
        <time>2015-01-24T07:52:19.740Z</time>
      </trkpt>
      <trkpt lat="45.22417" lon="6.027">
        <ele>1910.5599872</ele>
        <time>2015-01-24T07:52:31.540Z</time>
      </trkpt>
      <trkpt lat="45.22406" lon="6.02704">
        <ele>1912</ele>
        <time>2015-01-24T07:52:47.740Z</time>
      </trkpt>
      <trkpt lat="45.2242" lon="6.02712">
        <ele>1915</ele>
        <time>2015-01-24T07:53:07.740Z</time>
      </trkpt>
      <trkpt lat="45.22432" lon="6.02712">
        <ele>1917</ele>
        <time>2015-01-24T07:53:14.940Z</time>
      </trkpt>
      <trkpt lat="45.22441" lon="6.02718">
        <ele>1921</ele>
        <time>2015-01-24T07:53:27.540Z</time>
      </trkpt>
      <trkpt lat="45.2245" lon="6.02723">
        <ele>1923</ele>
        <time>2015-01-24T07:53:43.740Z</time>
      </trkpt>
      <trkpt lat="45.2246" lon="6.02728">
        <ele>1923.7799936</ele>
        <time>2015-01-24T07:53:51.540Z</time>
      </trkpt>
      <trkpt lat="45.22474" lon="6.02741">
        <ele>1925</ele>
        <time>2015-01-24T07:54:07.740Z</time>
      </trkpt>
      <trkpt lat="45.22487" lon="6.0275">
        <ele>1928</ele>
        <time>2015-01-24T07:54:23.740Z</time>
      </trkpt>
      <trkpt lat="45.22499" lon="6.02754">
        <ele>1928</ele>
        <time>2015-01-24T07:54:31.540Z</time>
      </trkpt>
      <trkpt lat="45.22505" lon="6.02769">
        <ele>1930</ele>
        <time>2015-01-24T07:54:43.740Z</time>
      </trkpt>
      <trkpt lat="45.22509" lon="6.02786">
        <ele>1934</ele>
        <time>2015-01-24T07:54:59.740Z</time>
      </trkpt>
      <trkpt lat="45.22519" lon="6.02792">
        <ele>1935.9600128</ele>
        <time>2015-01-24T07:55:11.740Z</time>
      </trkpt>
      <trkpt lat="45.22535" lon="6.02796">
        <ele>1940</ele>
        <time>2015-01-24T07:55:23.540Z</time>
      </trkpt>
      <trkpt lat="45.22547" lon="6.02805">
        <ele>1943</ele>
        <time>2015-01-24T07:55:35.740Z</time>
      </trkpt>
      <trkpt lat="45.22535" lon="6.02807">
        <ele>1947</ele>
        <time>2015-01-24T07:55:54.940Z</time>
      </trkpt>
      <trkpt lat="45.22547" lon="6.02815">
        <ele>1955</ele>
        <time>2015-01-24T07:56:27.740Z</time>
      </trkpt>
      <trkpt lat="45.22558" lon="6.02817">
        <ele>1956</ele>
        <time>2015-01-24T07:56:43.540Z</time>
      </trkpt>
      <trkpt lat="45.22569" lon="6.02817">
        <ele>1957</ele>
        <time>2015-01-24T07:56:55.540Z</time>
      </trkpt>
      <trkpt lat="45.22582" lon="6.02817">
        <ele>1960.9600128</ele>
        <time>2015-01-24T07:57:11.740Z</time>
      </trkpt>
      <trkpt lat="45.22595" lon="6.02826">
        <ele>1964.7722733379</ele>
        <time>2015-01-24T07:57:31.540Z</time>
      </trkpt>
      <trkpt lat="45.22596" lon="6.02847">
        <ele>1966</ele>
        <time>2015-01-24T07:57:43.540Z</time>
      </trkpt>
      <trkpt lat="45.22596" lon="6.02863">
        <ele>1968</ele>
        <time>2015-01-24T07:57:55.540Z</time>
      </trkpt>
      <trkpt lat="45.22589" lon="6.02878">
        <ele>1975</ele>
        <time>2015-01-24T07:58:15.550Z</time>
      </trkpt>
      <trkpt lat="45.22584" lon="6.02894">
        <ele>1978</ele>
        <time>2015-01-24T07:58:23.740Z</time>
      </trkpt>
      <trkpt lat="45.22588" lon="6.02909">
        <ele>1984</ele>
        <time>2015-01-24T07:58:39.540Z</time>
      </trkpt>
      <trkpt lat="45.22592" lon="6.02926">
        <ele>1988</ele>
        <time>2015-01-24T07:58:55.540Z</time>
      </trkpt>
      <trkpt lat="45.2259" lon="6.02943">
        <ele>1990</ele>
        <time>2015-01-24T07:59:03.740Z</time>
      </trkpt>
      <trkpt lat="45.22579" lon="6.02941">
        <ele>1995</ele>
        <time>2015-01-24T07:59:19.540Z</time>
      </trkpt>
      <trkpt lat="45.22573" lon="6.02956">
        <ele>1997</ele>
        <time>2015-01-24T07:59:27.740Z</time>
      </trkpt>
      <trkpt lat="45.22562" lon="6.02966">
        <ele>1997</ele>
        <time>2015-01-24T07:59:35.740Z</time>
      </trkpt>
      <trkpt lat="45.22558" lon="6.02979">
        <ele>1999.5599872</ele>
        <time>2015-01-24T07:59:51.540Z</time>
      </trkpt>
      <trkpt lat="45.22546" lon="6.02987">
        <ele>2001</ele>
        <time>2015-01-24T08:00:11.740Z</time>
      </trkpt>
      <trkpt lat="45.22555" lon="6.03">
        <ele>2006</ele>
        <time>2015-01-24T08:00:43.550Z</time>
      </trkpt>
      <trkpt lat="45.22549" lon="6.03012">
        <ele>2013</ele>
        <time>2015-01-24T08:01:07.540Z</time>
      </trkpt>
      <trkpt lat="45.2254" lon="6.03017">
        <ele>2017</ele>
        <time>2015-01-24T08:01:23.740Z</time>
      </trkpt>
      <trkpt lat="45.22548" lon="6.03027">
        <ele>2018</ele>
        <time>2015-01-24T08:01:39.540Z</time>
      </trkpt>
      <trkpt lat="45.22543" lon="6.03042">
        <ele>2024.9600128</ele>
        <time>2015-01-24T08:02:11.740Z</time>
      </trkpt>
      <trkpt lat="45.22539" lon="6.03057">
        <ele>2029</ele>
        <time>2015-01-24T08:02:27.740Z</time>
      </trkpt>
      <trkpt lat="45.22533" lon="6.0307">
        <ele>2031</ele>
        <time>2015-01-24T08:02:43.540Z</time>
      </trkpt>
      <trkpt lat="45.22523" lon="6.03071">
        <ele>2036</ele>
        <time>2015-01-24T08:02:59.740Z</time>
      </trkpt>
      <trkpt lat="45.22514" lon="6.03084">
        <ele>2038.9800064</ele>
        <time>2015-01-24T08:03:11.740Z</time>
      </trkpt>
      <trkpt lat="45.22504" lon="6.03079">
        <ele>2048</ele>
        <time>2015-01-24T08:04:07.540Z</time>
      </trkpt>
      <trkpt lat="45.22493" lon="6.03073">
        <ele>2049</ele>
        <time>2015-01-24T08:04:27.540Z</time>
      </trkpt>
      <trkpt lat="45.22496" lon="6.03092">
        <ele>2051</ele>
        <time>2015-01-24T08:04:54.940Z</time>
      </trkpt>
      <trkpt lat="45.22484" lon="6.03098">
        <ele>2057</ele>
        <time>2015-01-24T08:05:15.740Z</time>
      </trkpt>
      <trkpt lat="45.22482" lon="6.03112">
        <ele>2063</ele>
        <time>2015-01-24T08:05:47.740Z</time>
      </trkpt>
      <trkpt lat="45.22486" lon="6.03127">
        <ele>2068</ele>
        <time>2015-01-24T08:06:15.540Z</time>
      </trkpt>
      <trkpt lat="45.22478" lon="6.03137">
        <ele>2073.9800064</ele>
        <time>2015-01-24T08:06:51.740Z</time>
      </trkpt>
      <trkpt lat="45.22473" lon="6.03148">
        <ele>2077</ele>
        <time>2015-01-24T08:07:23.740Z</time>
      </trkpt>
      <trkpt lat="45.22484" lon="6.03155">
        <ele>2079</ele>
        <time>2015-01-24T08:07:35.740Z</time>
      </trkpt>
      <trkpt lat="45.22471" lon="6.03155">
        <ele>2084</ele>
        <time>2015-01-24T08:07:54.940Z</time>
      </trkpt>
      <trkpt lat="45.22478" lon="6.03167">
        <ele>2085</ele>
        <time>2015-01-24T08:08:18.940Z</time>
      </trkpt>
      <trkpt lat="45.22468" lon="6.03169">
        <ele>2090</ele>
        <time>2015-01-24T08:08:59.740Z</time>
      </trkpt>
      <trkpt lat="45.22478" lon="6.03179">
        <ele>2092</ele>
        <time>2015-01-24T08:09:15.550Z</time>
      </trkpt>
      <trkpt lat="45.22472" lon="6.0319">
        <ele>2100</ele>
        <time>2015-01-24T08:10:11.740Z</time>
      </trkpt>
      <trkpt lat="45.22471" lon="6.03206">
        <ele>2108</ele>
        <time>2015-01-24T08:11:18.940Z</time>
      </trkpt>
      <trkpt lat="45.22479" lon="6.03214">
        <ele>2112</ele>
        <time>2015-01-24T08:13:23.740Z</time>
      </trkpt>
      <trkpt lat="45.22485" lon="6.0322">
        <ele>2122</ele>
        <time>2015-01-24T08:16:03.540Z</time>
      </trkpt>
      <trkpt lat="45.22487" lon="6.03236">
        <ele>2126</ele>
        <time>2015-01-24T08:16:35.540Z</time>
      </trkpt>
      <trkpt lat="45.22486" lon="6.03252">
        <ele>2136</ele>
        <time>2015-01-24T08:18:20.540Z</time>
      </trkpt>
      <trkpt lat="45.2249" lon="6.03267">
        <ele>2148</ele>
        <time>2015-01-24T08:20:20.540Z</time>
      </trkpt>
      <trkpt lat="45.22485" lon="6.03283">
        <ele>2155</ele>
        <time>2015-01-24T08:21:20.540Z</time>
      </trkpt>
      <trkpt lat="45.22487" lon="6.03296">
        <ele>2166</ele>
        <time>2015-01-24T08:23:00.550Z</time>
      </trkpt>
      <trkpt lat="45.2248" lon="6.03305">
        <ele>2171</ele>
        <time>2015-01-24T08:23:52.740Z</time>
      </trkpt>
      <trkpt lat="45.22481" lon="6.0332">
        <ele>2180</ele>
        <time>2015-01-24T08:24:47.940Z</time>
      </trkpt>
      <trkpt lat="45.22485" lon="6.03336">
        <ele>2191</ele>
        <time>2015-01-24T08:25:52.740Z</time>
      </trkpt>
      <trkpt lat="45.22485" lon="6.03352">
        <ele>2201</ele>
        <time>2015-01-24T08:26:47.940Z</time>
      </trkpt>
      <trkpt lat="45.22492" lon="6.03362">
        <ele>2214</ele>
        <time>2015-01-24T08:27:52.540Z</time>
      </trkpt>
      <trkpt lat="45.22502" lon="6.03366">
        <ele>2219</ele>
        <time>2015-01-24T08:29:48.540Z</time>
      </trkpt>
      <trkpt lat="45.22491" lon="6.03363">
        <ele>2217</ele>
        <time>2015-01-24T08:33:16.540Z</time>
      </trkpt>
      <trkpt lat="45.22488" lon="6.03346">
        <ele>2207</ele>
        <time>2015-01-24T08:33:52.540Z</time>
      </trkpt>
      <trkpt lat="45.22492" lon="6.03323">
        <ele>2199</ele>
        <time>2015-01-24T08:34:24.540Z</time>
      </trkpt>
      <trkpt lat="45.22483" lon="6.0331">
        <ele>2183</ele>
        <time>2015-01-24T08:35:04.540Z</time>
      </trkpt>
      <trkpt lat="45.22483" lon="6.03295">
        <ele>2182</ele>
        <time>2015-01-24T08:35:48.540Z</time>
      </trkpt>
      <trkpt lat="45.22479" lon="6.0328">
        <ele>2169</ele>
        <time>2015-01-24T08:36:24.540Z</time>
      </trkpt>
      <trkpt lat="45.22482" lon="6.03294">
        <ele>2166</ele>
        <time>2015-01-24T08:36:53.540Z</time>
      </trkpt>
      <trkpt lat="45.22484" lon="6.03274">
        <ele>2162</ele>
        <time>2015-01-24T08:37:05.540Z</time>
      </trkpt>
      <trkpt lat="45.22489" lon="6.03272">
        <ele>2152</ele>
        <time>2015-01-24T08:38:05.540Z</time>
      </trkpt>
      <trkpt lat="45.22484" lon="6.03257">
        <ele>2144.7799936</ele>
        <time>2015-01-24T08:38:33.540Z</time>
      </trkpt>
      <trkpt lat="45.22477" lon="6.03246">
        <ele>2137.2200064</ele>
        <time>2015-01-24T08:39:05.540Z</time>
      </trkpt>
      <trkpt lat="45.22484" lon="6.03233">
        <ele>2135</ele>
        <time>2015-01-24T08:39:29.540Z</time>
      </trkpt>
      <trkpt lat="45.22477" lon="6.03217">
        <ele>2127</ele>
        <time>2015-01-24T08:39:45.540Z</time>
      </trkpt>
      <trkpt lat="45.22468" lon="6.03202">
        <ele>2117</ele>
        <time>2015-01-24T08:40:05.540Z</time>
      </trkpt>
      <trkpt lat="45.22478" lon="6.03196">
        <ele>2107</ele>
        <time>2015-01-24T08:40:13.540Z</time>
      </trkpt>
      <trkpt lat="45.22481" lon="6.03211">
        <ele>2108</ele>
        <time>2015-01-24T08:41:09.540Z</time>
      </trkpt>
      <trkpt lat="45.22476" lon="6.03191">
        <ele>2099</ele>
        <time>2015-01-24T08:43:13.540Z</time>
      </trkpt>
      <trkpt lat="45.22468" lon="6.03173">
        <ele>2090.2200064</ele>
        <time>2015-01-24T08:43:29.540Z</time>
      </trkpt>
      <trkpt lat="45.22468" lon="6.0315">
        <ele>2083</ele>
        <time>2015-01-24T08:44:17.540Z</time>
      </trkpt>
      <trkpt lat="45.22473" lon="6.03113">
        <ele>2062.8800256</ele>
        <time>2015-01-24T08:44:25.540Z</time>
      </trkpt>
      <trkpt lat="45.22487" lon="6.03082">
        <ele>2042.2200064</ele>
        <time>2015-01-24T08:44:53.540Z</time>
      </trkpt>
      <trkpt lat="45.22511" lon="6.03063">
        <ele>2028.2200064</ele>
        <time>2015-01-24T08:45:05.540Z</time>
      </trkpt>
      <trkpt lat="45.22523" lon="6.0304">
        <ele>2019.3200384</ele>
        <time>2015-01-24T08:45:21.540Z</time>
      </trkpt>
      <trkpt lat="45.22533" lon="6.03035">
        <ele>2013</ele>
        <time>2015-01-24T08:45:29.540Z</time>
      </trkpt>
      <trkpt lat="45.22528" lon="6.03015">
        <ele>2006.2200064</ele>
        <time>2015-01-24T08:45:41.540Z</time>
      </trkpt>
      <trkpt lat="45.22549" lon="6.02995">
        <ele>1998.4400128</ele>
        <time>2015-01-24T08:46:01.540Z</time>
      </trkpt>
      <trkpt lat="45.22562" lon="6.03002">
        <ele>1998</ele>
        <time>2015-01-24T08:46:17.540Z</time>
      </trkpt>
      <trkpt lat="45.22571" lon="6.02996">
        <ele>1994</ele>
        <time>2015-01-24T08:46:45.540Z</time>
      </trkpt>
      <trkpt lat="45.22579" lon="6.02985">
        <ele>1992</ele>
        <time>2015-01-24T08:47:05.540Z</time>
      </trkpt>
      <trkpt lat="45.22572" lon="6.02974">
        <ele>1989</ele>
        <time>2015-01-24T08:47:29.540Z</time>
      </trkpt>
      <trkpt lat="45.2256" lon="6.02954">
        <ele>1981.8800256</ele>
        <time>2015-01-24T08:47:41.540Z</time>
      </trkpt>
      <trkpt lat="45.22561" lon="6.02938">
        <ele>1977</ele>
        <time>2015-01-24T08:47:49.540Z</time>
      </trkpt>
      <trkpt lat="45.22572" lon="6.0292">
        <ele>1972.2200064</ele>
        <time>2015-01-24T08:47:57.540Z</time>
      </trkpt>
      <trkpt lat="45.22583" lon="6.02908">
        <ele>1971</ele>
        <time>2015-01-24T08:48:05.540Z</time>
      </trkpt>
      <trkpt lat="45.2258" lon="6.02894">
        <ele>1960.7799936</ele>
        <time>2015-01-24T08:48:17.540Z</time>
      </trkpt>
      <trkpt lat="45.2258" lon="6.02873">
        <ele>1960</ele>
        <time>2015-01-24T08:48:25.540Z</time>
      </trkpt>
      <trkpt lat="45.22581" lon="6.02852">
        <ele>1951</ele>
        <time>2015-01-24T08:48:33.540Z</time>
      </trkpt>
      <trkpt lat="45.22591" lon="6.02855">
        <ele>1951</ele>
        <time>2015-01-24T08:50:09.540Z</time>
      </trkpt>
      <trkpt lat="45.22589" lon="6.02872">
        <ele>1954</ele>
        <time>2015-01-24T08:53:33.540Z</time>
      </trkpt>
      <trkpt lat="45.22584" lon="6.02888">
        <ele>1958</ele>
        <time>2015-01-24T08:53:45.540Z</time>
      </trkpt>
      <trkpt lat="45.22582" lon="6.02903">
        <ele>1962</ele>
        <time>2015-01-24T08:53:57.540Z</time>
      </trkpt>
      <trkpt lat="45.22582" lon="6.02922">
        <ele>1967</ele>
        <time>2015-01-24T08:54:13.540Z</time>
      </trkpt>
      <trkpt lat="45.2259" lon="6.02931">
        <ele>1970</ele>
        <time>2015-01-24T08:54:25.540Z</time>
      </trkpt>
      <trkpt lat="45.22579" lon="6.02939">
        <ele>1973</ele>
        <time>2015-01-24T08:54:37.540Z</time>
      </trkpt>
      <trkpt lat="45.22568" lon="6.02956">
        <ele>1975</ele>
        <time>2015-01-24T08:54:49.540Z</time>
      </trkpt>
      <trkpt lat="45.22561" lon="6.02968">
        <ele>1977</ele>
        <time>2015-01-24T08:54:57.540Z</time>
      </trkpt>
      <trkpt lat="45.22571" lon="6.02976">
        <ele>1981</ele>
        <time>2015-01-24T08:55:17.740Z</time>
      </trkpt>
      <trkpt lat="45.22572" lon="6.0299">
        <ele>1987</ele>
        <time>2015-01-24T08:55:37.540Z</time>
      </trkpt>
      <trkpt lat="45.22578" lon="6.03005">
        <ele>1990</ele>
        <time>2015-01-24T08:55:49.540Z</time>
      </trkpt>
      <trkpt lat="45.22591" lon="6.03011">
        <ele>1993.7799936</ele>
        <time>2015-01-24T08:56:01.540Z</time>
      </trkpt>
      <trkpt lat="45.22602" lon="6.03014">
        <ele>1998</ele>
        <time>2015-01-24T08:56:17.540Z</time>
      </trkpt>
      <trkpt lat="45.2261" lon="6.03005">
        <ele>2000</ele>
        <time>2015-01-24T08:56:25.540Z</time>
      </trkpt>
      <trkpt lat="45.22622" lon="6.03007">
        <ele>2004</ele>
        <time>2015-01-24T08:56:33.540Z</time>
      </trkpt>
      <trkpt lat="45.22626" lon="6.03021">
        <ele>2007</ele>
        <time>2015-01-24T08:56:45.540Z</time>
      </trkpt>
      <trkpt lat="45.22641" lon="6.0303">
        <ele>2012.7799936</ele>
        <time>2015-01-24T08:57:01.540Z</time>
      </trkpt>
      <trkpt lat="45.22648" lon="6.0304">
        <ele>2015</ele>
        <time>2015-01-24T08:57:09.540Z</time>
      </trkpt>
      <trkpt lat="45.22653" lon="6.03055">
        <ele>2019.5599872</ele>
        <time>2015-01-24T08:57:21.540Z</time>
      </trkpt>
      <trkpt lat="45.22652" lon="6.0307">
        <ele>2024</ele>
        <time>2015-01-24T08:57:37.540Z</time>
      </trkpt>
      <trkpt lat="45.22653" lon="6.03086">
        <ele>2029</ele>
        <time>2015-01-24T08:57:53.540Z</time>
      </trkpt>
      <trkpt lat="45.22662" lon="6.03079">
        <ele>2030</ele>
        <time>2015-01-24T08:58:09.540Z</time>
      </trkpt>
      <trkpt lat="45.22676" lon="6.03078">
        <ele>2035</ele>
        <time>2015-01-24T08:58:25.540Z</time>
      </trkpt>
      <trkpt lat="45.22686" lon="6.03082">
        <ele>2041</ele>
        <time>2015-01-24T08:58:45.540Z</time>
      </trkpt>
      <trkpt lat="45.22701" lon="6.03091">
        <ele>2044</ele>
        <time>2015-01-24T08:58:57.540Z</time>
      </trkpt>
      <trkpt lat="45.22712" lon="6.03104">
        <ele>2048</ele>
        <time>2015-01-24T08:59:09.540Z</time>
      </trkpt>
      <trkpt lat="45.22715" lon="6.03122">
        <ele>2052</ele>
        <time>2015-01-24T08:59:25.540Z</time>
      </trkpt>
      <trkpt lat="45.22728" lon="6.03137">
        <ele>2057</ele>
        <time>2015-01-24T08:59:37.540Z</time>
      </trkpt>
      <trkpt lat="45.22737" lon="6.03148">
        <ele>2057</ele>
        <time>2015-01-24T08:59:45.540Z</time>
      </trkpt>
      <trkpt lat="45.22734" lon="6.03163">
        <ele>2061</ele>
        <time>2015-01-24T08:59:57.540Z</time>
      </trkpt>
      <trkpt lat="45.22737" lon="6.03178">
        <ele>2063</ele>
        <time>2015-01-24T09:00:05.540Z</time>
      </trkpt>
      <trkpt lat="45.22731" lon="6.0319">
        <ele>2067</ele>
        <time>2015-01-24T09:00:17.540Z</time>
      </trkpt>
      <trkpt lat="45.2274" lon="6.03198">
        <ele>2071.7799936</ele>
        <time>2015-01-24T09:00:41.540Z</time>
      </trkpt>
      <trkpt lat="45.22752" lon="6.03206">
        <ele>2074</ele>
        <time>2015-01-24T09:00:53.540Z</time>
      </trkpt>
      <trkpt lat="45.22763" lon="6.03211">
        <ele>2078</ele>
        <time>2015-01-24T09:01:09.540Z</time>
      </trkpt>
      <trkpt lat="45.22759" lon="6.03225">
        <ele>2081.7799936</ele>
        <time>2015-01-24T09:01:21.540Z</time>
      </trkpt>
      <trkpt lat="45.22752" lon="6.03236">
        <ele>2085</ele>
        <time>2015-01-24T09:01:37.250Z</time>
      </trkpt>
      <trkpt lat="45.22754" lon="6.0325">
        <ele>2091</ele>
        <time>2015-01-24T09:02:05.540Z</time>
      </trkpt>
      <trkpt lat="45.22766" lon="6.03249">
        <ele>2095</ele>
        <time>2015-01-24T09:02:37.540Z</time>
      </trkpt>
      <trkpt lat="45.22767" lon="6.03263">
        <ele>2099</ele>
        <time>2015-01-24T09:02:53.540Z</time>
      </trkpt>
      <trkpt lat="45.2276" lon="6.03274">
        <ele>2103</ele>
        <time>2015-01-24T09:03:05.540Z</time>
      </trkpt>
      <trkpt lat="45.22748" lon="6.03284">
        <ele>2107.7799936</ele>
        <time>2015-01-24T09:03:21.540Z</time>
      </trkpt>
      <trkpt lat="45.22754" lon="6.03295">
        <ele>2115.7800064</ele>
        <time>2015-01-24T09:03:56.540Z</time>
      </trkpt>
      <trkpt lat="45.22766" lon="6.03295">
        <ele>2121</ele>
        <time>2015-01-24T09:04:12.540Z</time>
      </trkpt>
      <trkpt lat="45.22778" lon="6.03301">
        <ele>2124</ele>
        <time>2015-01-24T09:04:24.540Z</time>
      </trkpt>
      <trkpt lat="45.22765" lon="6.03311">
        <ele>2132</ele>
        <time>2015-01-24T09:04:52.540Z</time>
      </trkpt>
      <trkpt lat="45.22777" lon="6.03317">
        <ele>2135</ele>
        <time>2015-01-24T09:05:08.540Z</time>
      </trkpt>
      <trkpt lat="45.22788" lon="6.03319">
        <ele>2135</ele>
        <time>2015-01-24T09:05:20.540Z</time>
      </trkpt>
      <trkpt lat="45.22799" lon="6.0332">
        <ele>2140</ele>
        <time>2015-01-24T09:05:32.540Z</time>
      </trkpt>
      <trkpt lat="45.22811" lon="6.03325">
        <ele>2141</ele>
        <time>2015-01-24T09:05:48.740Z</time>
      </trkpt>
      <trkpt lat="45.22816" lon="6.03322">
        <ele>2146.9399808</ele>
        <time>2015-01-24T09:05:56.740Z</time>
      </trkpt>
      <trkpt lat="45.22822" lon="6.03327">
        <ele>2148</ele>
        <time>2015-01-24T09:06:04.740Z</time>
      </trkpt>
      <trkpt lat="45.22829" lon="6.0333">
        <ele>2151</ele>
        <time>2015-01-24T09:06:12.740Z</time>
      </trkpt>
      <trkpt lat="45.22842" lon="6.03334">
        <ele>2155</ele>
        <time>2015-01-24T09:06:24.740Z</time>
      </trkpt>
      <trkpt lat="45.22852" lon="6.0333">
        <ele>2156</ele>
        <time>2015-01-24T09:06:32.740Z</time>
      </trkpt>
      <trkpt lat="45.22866" lon="6.03323">
        <ele>2156</ele>
        <time>2015-01-24T09:06:40.540Z</time>
      </trkpt>
      <trkpt lat="45.22877" lon="6.03327">
        <ele>2157</ele>
        <time>2015-01-24T09:06:48.540Z</time>
      </trkpt>
      <trkpt lat="45.22888" lon="6.03331">
        <ele>2157</ele>
        <time>2015-01-24T09:07:00.540Z</time>
      </trkpt>
      <trkpt lat="45.229" lon="6.03332">
        <ele>2163</ele>
        <time>2015-01-24T09:07:12.540Z</time>
      </trkpt>
      <trkpt lat="45.22913" lon="6.03337">
        <ele>2165</ele>
        <time>2015-01-24T09:07:24.540Z</time>
      </trkpt>
      <trkpt lat="45.22925" lon="6.03345">
        <ele>2171.5600128</ele>
        <time>2015-01-24T09:07:36.540Z</time>
      </trkpt>
      <trkpt lat="45.22935" lon="6.03349">
        <ele>2176</ele>
        <time>2015-01-24T09:07:52.540Z</time>
      </trkpt>
      <trkpt lat="45.2294" lon="6.03362">
        <ele>2182.5600128</ele>
        <time>2015-01-24T09:08:16.540Z</time>
      </trkpt>
      <trkpt lat="45.22951" lon="6.03368">
        <ele>2185</ele>
        <time>2015-01-24T09:08:36.540Z</time>
      </trkpt>
      <trkpt lat="45.22949" lon="6.03383">
        <ele>2188</ele>
        <time>2015-01-24T09:08:48.540Z</time>
      </trkpt>
      <trkpt lat="45.2296" lon="6.03389">
        <ele>2192</ele>
        <time>2015-01-24T09:09:04.540Z</time>
      </trkpt>
      <trkpt lat="45.22967" lon="6.03403">
        <ele>2192</ele>
        <time>2015-01-24T09:09:16.550Z</time>
      </trkpt>
      <trkpt lat="45.22966" lon="6.0342">
        <ele>2196</ele>
        <time>2015-01-24T09:09:24.540Z</time>
      </trkpt>
      <trkpt lat="45.22976" lon="6.03426">
        <ele>2203</ele>
        <time>2015-01-24T09:09:44.540Z</time>
      </trkpt>
      <trkpt lat="45.22983" lon="6.03441">
        <ele>2207.3400192</ele>
        <time>2015-01-24T09:09:56.540Z</time>
      </trkpt>
      <trkpt lat="45.22992" lon="6.03447">
        <ele>2209</ele>
        <time>2015-01-24T09:10:08.540Z</time>
      </trkpt>
      <trkpt lat="45.23001" lon="6.03453">
        <ele>2210</ele>
        <time>2015-01-24T09:10:24.540Z</time>
      </trkpt>
      <trkpt lat="45.2301" lon="6.03461">
        <ele>2212.7800064</ele>
        <time>2015-01-24T09:10:36.540Z</time>
      </trkpt>
      <trkpt lat="45.23013" lon="6.03476">
        <ele>2213</ele>
        <time>2015-01-24T09:10:44.540Z</time>
      </trkpt>
      <trkpt lat="45.23021" lon="6.03488">
        <ele>2216.5600128</ele>
        <time>2015-01-24T09:10:56.540Z</time>
      </trkpt>
      <trkpt lat="45.23033" lon="6.0349">
        <ele>2218</ele>
        <time>2015-01-24T09:11:04.540Z</time>
      </trkpt>
      <trkpt lat="45.23037" lon="6.03504">
        <ele>2223.5600128</ele>
        <time>2015-01-24T09:11:16.540Z</time>
      </trkpt>
      <trkpt lat="45.23044" lon="6.0352">
        <ele>2226</ele>
        <time>2015-01-24T09:11:28.540Z</time>
      </trkpt>
      <trkpt lat="45.23041" lon="6.03535">
        <ele>2230</ele>
        <time>2015-01-24T09:11:44.540Z</time>
      </trkpt>
      <trkpt lat="45.23042" lon="6.03552">
        <ele>2234</ele>
        <time>2015-01-24T09:12:00.540Z</time>
      </trkpt>
      <trkpt lat="45.23034" lon="6.0356">
        <ele>2238</ele>
        <time>2015-01-24T09:12:12.540Z</time>
      </trkpt>
      <trkpt lat="45.23048" lon="6.03557">
        <ele>2242</ele>
        <time>2015-01-24T09:12:28.540Z</time>
      </trkpt>
      <trkpt lat="45.23058" lon="6.03555">
        <ele>2244</ele>
        <time>2015-01-24T09:12:40.540Z</time>
      </trkpt>
      <trkpt lat="45.23069" lon="6.03553">
        <ele>2248.7800064</ele>
        <time>2015-01-24T09:12:56.540Z</time>
      </trkpt>
      <trkpt lat="45.23077" lon="6.03562">
        <ele>2258</ele>
        <time>2015-01-24T09:13:32.540Z</time>
      </trkpt>
      <trkpt lat="45.23087" lon="6.03552">
        <ele>2264</ele>
        <time>2015-01-24T09:13:52.540Z</time>
      </trkpt>
      <trkpt lat="45.23094" lon="6.0354">
        <ele>2265</ele>
        <time>2015-01-24T09:14:08.540Z</time>
      </trkpt>
      <trkpt lat="45.23101" lon="6.03529">
        <ele>2271</ele>
        <time>2015-01-24T09:14:24.540Z</time>
      </trkpt>
      <trkpt lat="45.23111" lon="6.03536">
        <ele>2276</ele>
        <time>2015-01-24T09:14:40.540Z</time>
      </trkpt>
      <trkpt lat="45.23119" lon="6.03547">
        <ele>2281</ele>
        <time>2015-01-24T09:15:00.540Z</time>
      </trkpt>
      <trkpt lat="45.23129" lon="6.03552">
        <ele>2287</ele>
        <time>2015-01-24T09:15:36.540Z</time>
      </trkpt>
      <trkpt lat="45.23135" lon="6.03562">
        <ele>2295</ele>
        <time>2015-01-24T09:16:08.740Z</time>
      </trkpt>
      <trkpt lat="45.23138" lon="6.0358">
        <ele>2297.9799936</ele>
        <time>2015-01-24T09:16:16.740Z</time>
      </trkpt>
      <trkpt lat="45.23144" lon="6.03593">
        <ele>2301</ele>
        <time>2015-01-24T09:16:28.740Z</time>
      </trkpt>
      <trkpt lat="45.2315" lon="6.03604">
        <ele>2306</ele>
        <time>2015-01-24T09:16:40.740Z</time>
      </trkpt>
      <trkpt lat="45.23154" lon="6.03615">
        <ele>2309</ele>
        <time>2015-01-24T09:16:52.740Z</time>
      </trkpt>
      <trkpt lat="45.23165" lon="6.03613">
        <ele>2305</ele>
        <time>2015-01-24T09:18:08.540Z</time>
      </trkpt>
      <trkpt lat="45.23154" lon="6.03611">
        <ele>2308</ele>
        <time>2015-01-24T09:19:16.540Z</time>
      </trkpt>
      <trkpt lat="45.23164" lon="6.03617">
        <ele>2305</ele>
        <time>2015-01-24T09:21:16.540Z</time>
      </trkpt>
      <trkpt lat="45.23154" lon="6.03619">
        <ele>2305</ele>
        <time>2015-01-24T09:21:28.540Z</time>
      </trkpt>
      <trkpt lat="45.23167" lon="6.0362">
        <ele>2304</ele>
        <time>2015-01-24T09:23:12.540Z</time>
      </trkpt>
      <trkpt lat="45.23156" lon="6.03618">
        <ele>2303</ele>
        <time>2015-01-24T09:23:48.540Z</time>
      </trkpt>
      <trkpt lat="45.23169" lon="6.03617">
        <ele>2304</ele>
        <time>2015-01-24T09:26:08.540Z</time>
      </trkpt>
      <trkpt lat="45.2318" lon="6.03609">
        <ele>2304</ele>
        <time>2015-01-24T09:26:16.540Z</time>
      </trkpt>
      <trkpt lat="45.23169" lon="6.03604">
        <ele>2304</ele>
        <time>2015-01-24T09:26:40.740Z</time>
      </trkpt>
      <trkpt lat="45.23176" lon="6.03616">
        <ele>2303</ele>
        <time>2015-01-24T09:28:24.540Z</time>
      </trkpt>
      <trkpt lat="45.23184" lon="6.03624">
        <ele>2304</ele>
        <time>2015-01-24T09:28:52.540Z</time>
      </trkpt>
      <trkpt lat="45.23193" lon="6.03635">
        <ele>2303</ele>
        <time>2015-01-24T09:29:28.540Z</time>
      </trkpt>
      <trkpt lat="45.23203" lon="6.03643">
        <ele>2304</ele>
        <time>2015-01-24T09:29:40.540Z</time>
      </trkpt>
      <trkpt lat="45.23214" lon="6.03642">
        <ele>2305</ele>
        <time>2015-01-24T09:29:52.540Z</time>
      </trkpt>
      <trkpt lat="45.23225" lon="6.03648">
        <ele>2305</ele>
        <time>2015-01-24T09:30:16.540Z</time>
      </trkpt>
      <trkpt lat="45.23235" lon="6.0365">
        <ele>2307</ele>
        <time>2015-01-24T09:31:04.540Z</time>
      </trkpt>
      <trkpt lat="45.23241" lon="6.03664">
        <ele>2309.7800064</ele>
        <time>2015-01-24T09:31:16.540Z</time>
      </trkpt>
      <trkpt lat="45.23243" lon="6.03678">
        <ele>2310</ele>
        <time>2015-01-24T09:32:00.540Z</time>
      </trkpt>
      <trkpt lat="45.23247" lon="6.03664">
        <ele>2311</ele>
        <time>2015-01-24T09:32:28.540Z</time>
      </trkpt>
      <trkpt lat="45.23255" lon="6.03655">
        <ele>2317</ele>
        <time>2015-01-24T09:33:00.540Z</time>
      </trkpt>
      <trkpt lat="45.2326" lon="6.0364">
        <ele>2326</ele>
        <time>2015-01-24T09:34:00.540Z</time>
      </trkpt>
      <trkpt lat="45.23272" lon="6.03642">
        <ele>2341.7777849607</ele>
        <time>2015-01-24T09:36:16.540Z</time>
      </trkpt>
      <trkpt lat="45.23278" lon="6.03634">
        <ele>2345</ele>
        <time>2015-01-24T09:36:44.540Z</time>
      </trkpt>
      <trkpt lat="45.2328" lon="6.03628">
        <ele>2347</ele>
        <time>2015-01-24T09:37:12.740Z</time>
      </trkpt>
      <trkpt lat="45.23284" lon="6.03627">
        <ele>2352</ele>
        <time>2015-01-24T09:37:32.740Z</time>
      </trkpt>
      <trkpt lat="45.23293" lon="6.03619">
        <ele>2362</ele>
        <time>2015-01-24T09:39:40.540Z</time>
      </trkpt>
      <trkpt lat="45.23305" lon="6.03618">
        <ele>2371</ele>
        <time>2015-01-24T09:41:04.540Z</time>
      </trkpt>
      <trkpt lat="45.23316" lon="6.03622">
        <ele>2374</ele>
        <time>2015-01-24T09:41:48.540Z</time>
      </trkpt>
      <trkpt lat="45.23327" lon="6.03617">
        <ele>2390</ele>
        <time>2015-01-24T09:44:16.540Z</time>
      </trkpt>
      <trkpt lat="45.23333" lon="6.03621">
        <ele>2396</ele>
        <time>2015-01-24T09:45:33.640Z</time>
      </trkpt>
      <trkpt lat="45.23339" lon="6.03623">
        <ele>2402.76</ele>
        <time>2015-01-24T09:46:21.640Z</time>
      </trkpt>
      <trkpt lat="45.23346" lon="6.03627">
        <ele>2405.88</ele>
        <time>2015-01-24T09:47:21.640Z</time>
      </trkpt>
      <trkpt lat="45.23349" lon="6.03634">
        <ele>2408.7425797785</ele>
        <time>2015-01-24T09:47:41.640Z</time>
      </trkpt>
      <trkpt lat="45.23361" lon="6.03634">
        <ele>2406</ele>
        <time>2015-01-24T09:50:57.540Z</time>
      </trkpt>
      <trkpt lat="45.23351" lon="6.03639">
        <ele>2405</ele>
        <time>2015-01-24T09:52:13.540Z</time>
      </trkpt>
      <trkpt lat="45.23361" lon="6.03647">
        <ele>2404</ele>
        <time>2015-01-24T09:54:05.540Z</time>
      </trkpt>
      <trkpt lat="45.2336" lon="6.03661">
        <ele>2406</ele>
        <time>2015-01-24T09:54:17.540Z</time>
      </trkpt>
      <trkpt lat="45.23367" lon="6.03676">
        <ele>2407</ele>
        <time>2015-01-24T09:54:37.540Z</time>
      </trkpt>
      <trkpt lat="45.23371" lon="6.03691">
        <ele>2409</ele>
        <time>2015-01-24T09:54:49.540Z</time>
      </trkpt>
      <trkpt lat="45.2337" lon="6.03705">
        <ele>2411.7799936</ele>
        <time>2015-01-24T09:55:01.540Z</time>
      </trkpt>
      <trkpt lat="45.23364" lon="6.03721">
        <ele>2415</ele>
        <time>2015-01-24T09:55:57.540Z</time>
      </trkpt>
      <trkpt lat="45.23377" lon="6.03719">
        <ele>2421</ele>
        <time>2015-01-24T09:56:25.540Z</time>
      </trkpt>
      <trkpt lat="45.23388" lon="6.03722">
        <ele>2423</ele>
        <time>2015-01-24T09:56:37.540Z</time>
      </trkpt>
      <trkpt lat="45.23398" lon="6.03727">
        <ele>2424</ele>
        <time>2015-01-24T09:57:37.540Z</time>
      </trkpt>
      <trkpt lat="45.23409" lon="6.03731">
        <ele>2425</ele>
        <time>2015-01-24T09:57:49.640Z</time>
      </trkpt>
      <trkpt lat="45.23422" lon="6.03735">
        <ele>2426</ele>
        <time>2015-01-24T09:58:05.540Z</time>
      </trkpt>
      <trkpt lat="45.23432" lon="6.03747">
        <ele>2428</ele>
        <time>2015-01-24T09:58:29.640Z</time>
      </trkpt>
      <trkpt lat="45.23442" lon="6.03749">
        <ele>2431</ele>
        <time>2015-01-24T09:58:45.640Z</time>
      </trkpt>
      <trkpt lat="45.23453" lon="6.03754">
        <ele>2434.12</ele>
        <time>2015-01-24T09:59:01.640Z</time>
      </trkpt>
      <trkpt lat="45.23457" lon="6.03767">
        <ele>2436.64</ele>
        <time>2015-01-24T09:59:21.640Z</time>
      </trkpt>
      <trkpt lat="45.23468" lon="6.03778">
        <ele>2439.88</ele>
        <time>2015-01-24T09:59:41.640Z</time>
      </trkpt>
      <trkpt lat="45.23477" lon="6.03788">
        <ele>2443</ele>
        <time>2015-01-24T10:00:05.640Z</time>
      </trkpt>
      <trkpt lat="45.23488" lon="6.03796">
        <ele>2446.64</ele>
        <time>2015-01-24T10:00:21.640Z</time>
      </trkpt>
      <trkpt lat="45.23492" lon="6.03811">
        <ele>2449.88</ele>
        <time>2015-01-24T10:00:41.640Z</time>
      </trkpt>
      <trkpt lat="45.23503" lon="6.03806">
        <ele>2452.88</ele>
        <time>2015-01-24T10:01:01.640Z</time>
      </trkpt>
      <trkpt lat="45.23499" lon="6.03793">
        <ele>2457</ele>
        <time>2015-01-24T10:01:25.640Z</time>
      </trkpt>
      <trkpt lat="45.23511" lon="6.03803">
        <ele>2460</ele>
        <time>2015-01-24T10:01:49.640Z</time>
      </trkpt>
      <trkpt lat="45.23522" lon="6.038">
        <ele>2468</ele>
        <time>2015-01-24T10:02:53.650Z</time>
      </trkpt>
      <trkpt lat="45.23531" lon="6.03805">
        <ele>2481</ele>
        <time>2015-01-24T10:06:57.640Z</time>
      </trkpt>
      <trkpt lat="45.23543" lon="6.03807">
        <ele>2496.7521388093</ele>
        <time>2015-01-24T10:08:21.640Z</time>
      </trkpt>
      <trkpt lat="45.23552" lon="6.03816">
        <ele>2505.88</ele>
        <time>2015-01-24T10:10:21.640Z</time>
      </trkpt>
      <trkpt lat="45.23564" lon="6.03823">
        <ele>2510.76</ele>
        <time>2015-01-24T10:10:41.640Z</time>
      </trkpt>
      <trkpt lat="45.23557" lon="6.03835">
        <ele>2513</ele>
        <time>2015-01-24T10:11:13.640Z</time>
      </trkpt>
      <trkpt lat="45.23566" lon="6.03846">
        <ele>2519</ele>
        <time>2015-01-24T10:11:37.640Z</time>
      </trkpt>
      <trkpt lat="45.23576" lon="6.03853">
        <ele>2521</ele>
        <time>2015-01-24T10:11:57.640Z</time>
      </trkpt>
      <trkpt lat="45.23582" lon="6.03866">
        <ele>2526</ele>
        <time>2015-01-24T10:12:33.640Z</time>
      </trkpt>
      <trkpt lat="45.23581" lon="6.03882">
        <ele>2528</ele>
        <time>2015-01-24T10:17:11.640Z</time>
      </trkpt>
      <trkpt lat="45.23584" lon="6.03867">
        <ele>2529</ele>
        <time>2015-01-24T10:17:31.640Z</time>
      </trkpt>
      <trkpt lat="45.23574" lon="6.03867">
        <ele>2529</ele>
        <time>2015-01-24T10:17:55.640Z</time>
      </trkpt>
      <trkpt lat="45.23584" lon="6.03885">
        <ele>2529</ele>
        <time>2015-01-24T10:18:11.640Z</time>
      </trkpt>
      <trkpt lat="45.23599" lon="6.03889">
        <ele>2529</ele>
        <time>2015-01-24T10:18:19.640Z</time>
      </trkpt>
      <trkpt lat="45.23629" lon="6.03875">
        <ele>2518.3300096</ele>
        <time>2015-01-24T10:18:31.650Z</time>
      </trkpt>
      <trkpt lat="45.23644" lon="6.03872">
        <ele>2517.88</ele>
        <time>2015-01-24T10:18:39.640Z</time>
      </trkpt>
      <trkpt lat="45.2366" lon="6.0387">
        <ele>2519.76</ele>
        <time>2015-01-24T10:18:51.640Z</time>
      </trkpt>
      <trkpt lat="45.23675" lon="6.03881">
        <ele>2520</ele>
        <time>2015-01-24T10:19:03.640Z</time>
      </trkpt>
      <trkpt lat="45.23685" lon="6.03882">
        <ele>2519</ele>
        <time>2015-01-24T10:19:15.640Z</time>
      </trkpt>
      <trkpt lat="45.23695" lon="6.03879">
        <ele>2519</ele>
        <time>2015-01-24T10:19:23.640Z</time>
      </trkpt>
      <trkpt lat="45.23706" lon="6.03885">
        <ele>2519</ele>
        <time>2015-01-24T10:19:35.640Z</time>
      </trkpt>
      <trkpt lat="45.23714" lon="6.03894">
        <ele>2519</ele>
        <time>2015-01-24T10:19:55.640Z</time>
      </trkpt>
      <trkpt lat="45.23723" lon="6.03887">
        <ele>2521</ele>
        <time>2015-01-24T10:20:15.640Z</time>
      </trkpt>
      <trkpt lat="45.23733" lon="6.03898">
        <ele>2527</ele>
        <time>2015-01-24T10:20:55.640Z</time>
      </trkpt>
      <trkpt lat="45.23742" lon="6.03904">
        <ele>2532</ele>
        <time>2015-01-24T10:21:23.640Z</time>
      </trkpt>
      <trkpt lat="45.23752" lon="6.03905">
        <ele>2537</ele>
        <time>2015-01-24T10:21:43.640Z</time>
      </trkpt>
      <trkpt lat="45.23762" lon="6.0391">
        <ele>2540</ele>
        <time>2015-01-24T10:21:55.640Z</time>
      </trkpt>
      <trkpt lat="45.23771" lon="6.03919">
        <ele>2545</ele>
        <time>2015-01-24T10:22:27.640Z</time>
      </trkpt>
      <trkpt lat="45.23783" lon="6.03924">
        <ele>2546</ele>
        <time>2015-01-24T10:22:35.640Z</time>
      </trkpt>
      <trkpt lat="45.23789" lon="6.0394">
        <ele>2551</ele>
        <time>2015-01-24T10:22:47.640Z</time>
      </trkpt>
      <trkpt lat="45.23782" lon="6.03951">
        <ele>2555</ele>
        <time>2015-01-24T10:23:03.640Z</time>
      </trkpt>
      <trkpt lat="45.23773" lon="6.03962">
        <ele>2559</ele>
        <time>2015-01-24T10:23:27.640Z</time>
      </trkpt>
      <trkpt lat="45.23779" lon="6.03975">
        <ele>2564</ele>
        <time>2015-01-24T10:23:55.640Z</time>
      </trkpt>
      <trkpt lat="45.23786" lon="6.03987">
        <ele>2570</ele>
        <time>2015-01-24T10:24:10.640Z</time>
      </trkpt>
      <trkpt lat="45.23797" lon="6.03992">
        <ele>2571</ele>
        <time>2015-01-24T10:24:18.640Z</time>
      </trkpt>
      <trkpt lat="45.23801" lon="6.03979">
        <ele>2574</ele>
        <time>2015-01-24T10:24:30.650Z</time>
      </trkpt>
      <trkpt lat="45.23811" lon="6.03967">
        <ele>2577</ele>
        <time>2015-01-24T10:24:50.640Z</time>
      </trkpt>
      <trkpt lat="45.2381" lon="6.03982">
        <ele>2583</ele>
        <time>2015-01-24T10:25:02.640Z</time>
      </trkpt>
      <trkpt lat="45.23817" lon="6.03992">
        <ele>2586</ele>
        <time>2015-01-24T10:25:18.640Z</time>
      </trkpt>
      <trkpt lat="45.23827" lon="6.04001">
        <ele>2589</ele>
        <time>2015-01-24T10:25:42.640Z</time>
      </trkpt>
      <trkpt lat="45.23836" lon="6.04007">
        <ele>2600</ele>
        <time>2015-01-24T10:27:34.640Z</time>
      </trkpt>
      <trkpt lat="45.23824" lon="6.04011">
        <ele>2601</ele>
        <time>2015-01-24T10:28:06.640Z</time>
      </trkpt>
      <trkpt lat="45.23834" lon="6.04012">
        <ele>2603</ele>
        <time>2015-01-24T10:28:54.640Z</time>
      </trkpt>
      <trkpt lat="45.23825" lon="6.04022">
        <ele>2610</ele>
        <time>2015-01-24T10:29:26.640Z</time>
      </trkpt>
      <trkpt lat="45.23832" lon="6.04034">
        <ele>2612</ele>
        <time>2015-01-24T10:29:46.640Z</time>
      </trkpt>
      <trkpt lat="45.23822" lon="6.04043">
        <ele>2616</ele>
        <time>2015-01-24T10:31:14.640Z</time>
      </trkpt>
      <trkpt lat="45.23832" lon="6.04037">
        <ele>2614</ele>
        <time>2015-01-24T10:32:02.640Z</time>
      </trkpt>
      <trkpt lat="45.23844" lon="6.04041">
        <ele>2621</ele>
        <time>2015-01-24T10:33:02.640Z</time>
      </trkpt>
      <trkpt lat="45.23857" lon="6.04048">
        <ele>2625</ele>
        <time>2015-01-24T10:33:30.640Z</time>
      </trkpt>
      <trkpt lat="45.23869" lon="6.04046">
        <ele>2628.88</ele>
        <time>2015-01-24T10:33:46.640Z</time>
      </trkpt>
      <trkpt lat="45.23879" lon="6.04044">
        <ele>2639</ele>
        <time>2015-01-24T10:36:58.640Z</time>
      </trkpt>
      <trkpt lat="45.23876" lon="6.04029">
        <ele>2633</ele>
        <time>2015-01-24T10:46:25.640Z</time>
      </trkpt>
      <trkpt lat="45.23874" lon="6.04047">
        <ele>2632</ele>
        <time>2015-01-24T10:47:45.640Z</time>
      </trkpt>
      <trkpt lat="45.23864" lon="6.04047">
        <ele>2624</ele>
        <time>2015-01-24T10:49:09.740Z</time>
      </trkpt>
      <trkpt lat="45.23848" lon="6.04039">
        <ele>2617</ele>
        <time>2015-01-24T10:51:37.740Z</time>
      </trkpt>
      <trkpt lat="45.23839" lon="6.04039">
        <ele>2609.0399872</ele>
        <time>2015-01-24T10:51:45.740Z</time>
      </trkpt>
      <trkpt lat="45.23831" lon="6.04039">
        <ele>2610</ele>
        <time>2015-01-24T10:51:53.740Z</time>
      </trkpt>
      <trkpt lat="45.23826" lon="6.04036">
        <ele>2606</ele>
        <time>2015-01-24T10:52:17.740Z</time>
      </trkpt>
      <trkpt lat="45.2382" lon="6.04025">
        <ele>2603</ele>
        <time>2015-01-24T10:53:29.640Z</time>
      </trkpt>
      <trkpt lat="45.23806" lon="6.04018">
        <ele>2585.24</ele>
        <time>2015-01-24T10:53:41.640Z</time>
      </trkpt>
      <trkpt lat="45.23785" lon="6.03987">
        <ele>2568.36</ele>
        <time>2015-01-24T10:53:49.640Z</time>
      </trkpt>
      <trkpt lat="45.23758" lon="6.03962">
        <ele>2555.1212117294</ele>
        <time>2015-01-24T10:53:57.640Z</time>
      </trkpt>
      <trkpt lat="45.2375" lon="6.03937">
        <ele>2546</ele>
        <time>2015-01-24T10:54:22.640Z</time>
      </trkpt>
      <trkpt lat="45.23737" lon="6.0392">
        <ele>2544</ele>
        <time>2015-01-24T10:54:34.640Z</time>
      </trkpt>
      <trkpt lat="45.23724" lon="6.0389">
        <ele>2524.36</ele>
        <time>2015-01-24T10:54:42.640Z</time>
      </trkpt>
      <trkpt lat="45.23705" lon="6.03866">
        <ele>2508.12</ele>
        <time>2015-01-24T10:54:50.640Z</time>
      </trkpt>
      <trkpt lat="45.23701" lon="6.03843">
        <ele>2493.36</ele>
        <time>2015-01-24T10:54:58.640Z</time>
      </trkpt>
      <trkpt lat="45.23701" lon="6.03808">
        <ele>2480</ele>
        <time>2015-01-24T10:55:18.640Z</time>
      </trkpt>
      <trkpt lat="45.23682" lon="6.03769">
        <ele>2454.12</ele>
        <time>2015-01-24T10:55:26.640Z</time>
      </trkpt>
      <trkpt lat="45.2366" lon="6.0376">
        <ele>2450</ele>
        <time>2015-01-24T10:55:38.640Z</time>
      </trkpt>
      <trkpt lat="45.23637" lon="6.03743">
        <ele>2450</ele>
        <time>2015-01-24T10:55:46.640Z</time>
      </trkpt>
      <trkpt lat="45.23626" lon="6.03704">
        <ele>2433.88</ele>
        <time>2015-01-24T10:55:54.640Z</time>
      </trkpt>
      <trkpt lat="45.23603" lon="6.0366">
        <ele>2419</ele>
        <time>2015-01-24T10:56:02.640Z</time>
      </trkpt>
      <trkpt lat="45.23579" lon="6.03598">
        <ele>2399.3861303323</ele>
        <time>2015-01-24T10:56:10.640Z</time>
      </trkpt>
      <trkpt lat="45.23532" lon="6.03527">
        <ele>2381.24</ele>
        <time>2015-01-24T10:56:18.640Z</time>
      </trkpt>
      <trkpt lat="45.23526" lon="6.03483">
        <ele>2372.88</ele>
        <time>2015-01-24T10:56:26.640Z</time>
      </trkpt>
      <trkpt lat="45.23511" lon="6.03476">
        <ele>2360</ele>
        <time>2015-01-24T10:56:42.640Z</time>
      </trkpt>
      <trkpt lat="45.23495" lon="6.03477">
        <ele>2355</ele>
        <time>2015-01-24T10:56:50.640Z</time>
      </trkpt>
      <trkpt lat="45.23454" lon="6.03489">
        <ele>2339.24</ele>
        <time>2015-01-24T10:56:58.640Z</time>
      </trkpt>
      <trkpt lat="45.23459" lon="6.03502">
        <ele>2332</ele>
        <time>2015-01-24T10:57:10.640Z</time>
      </trkpt>
      <trkpt lat="45.23477" lon="6.03507">
        <ele>2332</ele>
        <time>2015-01-24T10:57:18.640Z</time>
      </trkpt>
      <trkpt lat="45.23457" lon="6.03489">
        <ele>2332</ele>
        <time>2015-01-24T10:57:46.650Z</time>
      </trkpt>
      <trkpt lat="45.23422" lon="6.03477">
        <ele>2319</ele>
        <time>2015-01-24T10:58:10.640Z</time>
      </trkpt>
      <trkpt lat="45.23435" lon="6.03478">
        <ele>2319</ele>
        <time>2015-01-24T10:58:26.640Z</time>
      </trkpt>
      <trkpt lat="45.2342" lon="6.03467">
        <ele>2319</ele>
        <time>2015-01-24T10:58:46.640Z</time>
      </trkpt>
      <trkpt lat="45.234" lon="6.03452">
        <ele>2305.36</ele>
        <time>2015-01-24T10:58:54.640Z</time>
      </trkpt>
      <trkpt lat="45.23403" lon="6.03429">
        <ele>2297.12</ele>
        <time>2015-01-24T10:59:10.640Z</time>
      </trkpt>
      <trkpt lat="45.23392" lon="6.03431">
        <ele>2296</ele>
        <time>2015-01-24T10:59:30.640Z</time>
      </trkpt>
      <trkpt lat="45.23401" lon="6.03425">
        <ele>2290</ele>
        <time>2015-01-24T10:59:56.640Z</time>
      </trkpt>
      <trkpt lat="45.23392" lon="6.03418">
        <ele>2291</ele>
        <time>2015-01-24T11:00:12.640Z</time>
      </trkpt>
      <trkpt lat="45.23403" lon="6.03421">
        <ele>2291</ele>
        <time>2015-01-24T11:00:40.640Z</time>
      </trkpt>
      <trkpt lat="45.23392" lon="6.03392">
        <ele>2276.36</ele>
        <time>2015-01-24T11:01:04.640Z</time>
      </trkpt>
      <trkpt lat="45.23385" lon="6.0336">
        <ele>2253.48</ele>
        <time>2015-01-24T11:01:12.640Z</time>
      </trkpt>
      <trkpt lat="45.2335" lon="6.03343">
        <ele>2242.6</ele>
        <time>2015-01-24T11:02:01.640Z</time>
      </trkpt>
      <trkpt lat="45.23323" lon="6.03353">
        <ele>2239.12</ele>
        <time>2015-01-24T11:02:09.640Z</time>
      </trkpt>
      <trkpt lat="45.23318" lon="6.03338">
        <ele>2236</ele>
        <time>2015-01-24T11:02:22.640Z</time>
      </trkpt>
      <trkpt lat="45.23312" lon="6.03294">
        <ele>2227</ele>
        <time>2015-01-24T11:02:30.640Z</time>
      </trkpt>
      <trkpt lat="45.23323" lon="6.03272">
        <ele>2198</ele>
        <time>2015-01-24T11:02:58.640Z</time>
      </trkpt>
      <trkpt lat="45.23322" lon="6.03255">
        <ele>2198</ele>
        <time>2015-01-24T11:03:17.770Z</time>
      </trkpt>
      <trkpt lat="45.23304" lon="6.03194">
        <ele>2162.84</ele>
        <time>2015-01-24T11:03:25.920Z</time>
      </trkpt>
      <trkpt lat="45.23253" lon="6.03118">
        <ele>2136.84</ele>
        <time>2015-01-24T11:03:33.920Z</time>
      </trkpt>
      <trkpt lat="45.23247" lon="6.03109">
        <ele>2133</ele>
        <time>2015-01-24T11:03:41.840Z</time>
      </trkpt>
      <trkpt lat="45.23237" lon="6.03112">
        <ele>2133</ele>
        <time>2015-01-24T11:04:06.640Z</time>
      </trkpt>
      <trkpt lat="45.23208" lon="6.031">
        <ele>2133</ele>
        <time>2015-01-24T11:04:18.640Z</time>
      </trkpt>
      <trkpt lat="45.23147" lon="6.0308">
        <ele>2111.12</ele>
        <time>2015-01-24T11:04:26.640Z</time>
      </trkpt>
      <trkpt lat="45.231" lon="6.03036">
        <ele>2096</ele>
        <time>2015-01-24T11:04:34.640Z</time>
      </trkpt>
      <trkpt lat="45.23057" lon="6.03011">
        <ele>2084</ele>
        <time>2015-01-24T11:04:42.640Z</time>
      </trkpt>
      <trkpt lat="45.23031" lon="6.03007">
        <ele>2082</ele>
        <time>2015-01-24T11:04:54.640Z</time>
      </trkpt>
      <trkpt lat="45.23003" lon="6.03019">
        <ele>2072</ele>
        <time>2015-01-24T11:05:58.640Z</time>
      </trkpt>
      <trkpt lat="45.22954" lon="6.03046">
        <ele>2058.24</ele>
        <time>2015-01-24T11:06:06.640Z</time>
      </trkpt>
      <trkpt lat="45.2294" lon="6.03058">
        <ele>2051</ele>
        <time>2015-01-24T11:07:14.640Z</time>
      </trkpt>
      <trkpt lat="45.22926" lon="6.03049">
        <ele>2050</ele>
        <time>2015-01-24T11:07:34.640Z</time>
      </trkpt>
      <trkpt lat="45.22915" lon="6.03002">
        <ele>2024.08</ele>
        <time>2015-01-24T11:07:42.640Z</time>
      </trkpt>
      <trkpt lat="45.229" lon="6.0296">
        <ele>2010.6</ele>
        <time>2015-01-24T11:08:42.640Z</time>
      </trkpt>
      <trkpt lat="45.22863" lon="6.02903">
        <ele>1995.1212117294</ele>
        <time>2015-01-24T11:08:50.640Z</time>
      </trkpt>
      <trkpt lat="45.22844" lon="6.02865">
        <ele>1983</ele>
        <time>2015-01-24T11:09:42.640Z</time>
      </trkpt>
      <trkpt lat="45.22817" lon="6.02839">
        <ele>1975</ele>
        <time>2015-01-24T11:09:50.640Z</time>
      </trkpt>
      <trkpt lat="45.22815" lon="6.0281">
        <ele>1949</ele>
        <time>2015-01-24T11:10:06.640Z</time>
      </trkpt>
      <trkpt lat="45.22817" lon="6.02775">
        <ele>1948</ele>
        <time>2015-01-24T11:10:14.640Z</time>
      </trkpt>
      <trkpt lat="45.22799" lon="6.0274">
        <ele>1925.24</ele>
        <time>2015-01-24T11:10:26.640Z</time>
      </trkpt>
      <trkpt lat="45.22799" lon="6.02715">
        <ele>1919.24</ele>
        <time>2015-01-24T11:10:34.640Z</time>
      </trkpt>
      <trkpt lat="45.22807" lon="6.02703">
        <ele>1917</ele>
        <time>2015-01-24T11:10:46.650Z</time>
      </trkpt>
      <trkpt lat="45.22817" lon="6.02616">
        <ele>1903.88</ele>
        <time>2015-01-24T11:10:54.640Z</time>
      </trkpt>
      <trkpt lat="45.22791" lon="6.02586">
        <ele>1897</ele>
        <time>2015-01-24T11:11:02.640Z</time>
      </trkpt>
      <trkpt lat="45.22744" lon="6.02552">
        <ele>1884.24</ele>
        <time>2015-01-24T11:11:10.640Z</time>
      </trkpt>
      <trkpt lat="45.22707" lon="6.02529">
        <ele>1878</ele>
        <time>2015-01-24T11:11:18.640Z</time>
      </trkpt>
      <trkpt lat="45.22682" lon="6.02504">
        <ele>1871</ele>
        <time>2015-01-24T11:11:26.640Z</time>
      </trkpt>
      <trkpt lat="45.22649" lon="6.0251">
        <ele>1858</ele>
        <time>2015-01-24T11:11:38.640Z</time>
      </trkpt>
      <trkpt lat="45.22638" lon="6.02517">
        <ele>1852.24</ele>
        <time>2015-01-24T11:11:50.640Z</time>
      </trkpt>
      <trkpt lat="45.226" lon="6.02513">
        <ele>1841.12</ele>
        <time>2015-01-24T11:11:58.640Z</time>
      </trkpt>
      <trkpt lat="45.22593" lon="6.02524">
        <ele>1836</ele>
        <time>2015-01-24T11:12:26.640Z</time>
      </trkpt>
      <trkpt lat="45.22601" lon="6.02535">
        <ele>1831</ele>
        <time>2015-01-24T11:13:10.650Z</time>
      </trkpt>
      <trkpt lat="45.22607" lon="6.02524">
        <ele>1833</ele>
        <time>2015-01-24T11:14:44.640Z</time>
      </trkpt>
      <trkpt lat="45.22586" lon="6.02508">
        <ele>1831</ele>
        <time>2015-01-24T11:15:04.640Z</time>
      </trkpt>
      <trkpt lat="45.2253" lon="6.02476">
        <ele>1820.4400128</ele>
        <time>2015-01-24T11:15:12.650Z</time>
      </trkpt>
      <trkpt lat="45.22479" lon="6.0245">
        <ele>1809.24</ele>
        <time>2015-01-24T11:15:20.640Z</time>
      </trkpt>
      <trkpt lat="45.22484" lon="6.02436">
        <ele>1804.12</ele>
        <time>2015-01-24T11:15:36.640Z</time>
      </trkpt>
      <trkpt lat="45.22476" lon="6.02419">
        <ele>1806</ele>
        <time>2015-01-24T11:15:56.640Z</time>
      </trkpt>
      <trkpt lat="45.22441" lon="6.0239">
        <ele>1784.24</ele>
        <time>2015-01-24T11:16:04.640Z</time>
      </trkpt>
      <trkpt lat="45.22411" lon="6.02348">
        <ele>1768.36</ele>
        <time>2015-01-24T11:16:12.640Z</time>
      </trkpt>
      <trkpt lat="45.22401" lon="6.02327">
        <ele>1766</ele>
        <time>2015-01-24T11:16:20.640Z</time>
      </trkpt>
      <trkpt lat="45.22374" lon="6.02296">
        <ele>1748.36</ele>
        <time>2015-01-24T11:16:28.640Z</time>
      </trkpt>
      <trkpt lat="45.2234" lon="6.02288">
        <ele>1738.12</ele>
        <time>2015-01-24T11:16:36.640Z</time>
      </trkpt>
      <trkpt lat="45.22356" lon="6.02219">
        <ele>1729.24</ele>
        <time>2015-01-24T11:16:44.640Z</time>
      </trkpt>
      <trkpt lat="45.22344" lon="6.02229">
        <ele>1720.88</ele>
        <time>2015-01-24T11:17:00.640Z</time>
      </trkpt>
      <trkpt lat="45.2229" lon="6.02195">
        <ele>1714.12</ele>
        <time>2015-01-24T11:17:08.640Z</time>
      </trkpt>
      <trkpt lat="45.22277" lon="6.02185">
        <ele>1710</ele>
        <time>2015-01-24T11:17:32.640Z</time>
      </trkpt>
      <trkpt lat="45.22245" lon="6.02177">
        <ele>1710</ele>
        <time>2015-01-24T11:17:40.640Z</time>
      </trkpt>
      <trkpt lat="45.22231" lon="6.02137">
        <ele>1695.12</ele>
        <time>2015-01-24T11:17:48.640Z</time>
      </trkpt>
      <trkpt lat="45.22241" lon="6.02072">
        <ele>1690.12</ele>
        <time>2015-01-24T11:17:56.640Z</time>
      </trkpt>
      <trkpt lat="45.22232" lon="6.02013">
        <ele>1679.12</ele>
        <time>2015-01-24T11:18:04.640Z</time>
      </trkpt>
      <trkpt lat="45.22228" lon="6.01938">
        <ele>1667.88</ele>
        <time>2015-01-24T11:18:12.640Z</time>
      </trkpt>
      <trkpt lat="45.22232" lon="6.01867">
        <ele>1665</ele>
        <time>2015-01-24T11:18:20.640Z</time>
      </trkpt>
      <trkpt lat="45.22239" lon="6.01806">
        <ele>1665</ele>
        <time>2015-01-24T11:18:28.640Z</time>
      </trkpt>
      <trkpt lat="45.22258" lon="6.01756">
        <ele>1652.88</ele>
        <time>2015-01-24T11:18:36.640Z</time>
      </trkpt>
      <trkpt lat="45.2225" lon="6.0173">
        <ele>1648.12</ele>
        <time>2015-01-24T11:18:44.640Z</time>
      </trkpt>
      <trkpt lat="45.22238" lon="6.01729">
        <ele>1645</ele>
        <time>2015-01-24T11:18:56.650Z</time>
      </trkpt>
      <trkpt lat="45.22236" lon="6.01697">
        <ele>1643</ele>
        <time>2015-01-24T11:19:12.640Z</time>
      </trkpt>
      <trkpt lat="45.22238" lon="6.01663">
        <ele>1643</ele>
        <time>2015-01-24T11:19:24.640Z</time>
      </trkpt>
      <trkpt lat="45.22249" lon="6.01634">
        <ele>1645</ele>
        <time>2015-01-24T11:19:32.640Z</time>
      </trkpt>
      <trkpt lat="45.22243" lon="6.01616">
        <ele>1645</ele>
        <time>2015-01-24T11:19:40.640Z</time>
      </trkpt>
      <trkpt lat="45.22253" lon="6.01597">
        <ele>1645</ele>
        <time>2015-01-24T11:19:48.640Z</time>
      </trkpt>
      <trkpt lat="45.22246" lon="6.01544">
        <ele>1646</ele>
        <time>2015-01-24T11:20:00.640Z</time>
      </trkpt>
      <trkpt lat="45.22233" lon="6.01514">
        <ele>1645</ele>
        <time>2015-01-24T11:20:12.640Z</time>
      </trkpt>
      <trkpt lat="45.22226" lon="6.01484">
        <ele>1645</ele>
        <time>2015-01-24T11:20:20.640Z</time>
      </trkpt>
      <trkpt lat="45.22221" lon="6.01447">
        <ele>1645</ele>
        <time>2015-01-24T11:20:28.640Z</time>
      </trkpt>
      <trkpt lat="45.22228" lon="6.01402">
        <ele>1641</ele>
        <time>2015-01-24T11:20:44.640Z</time>
      </trkpt>
      <trkpt lat="45.22251" lon="6.01368">
        <ele>1632.4400128</ele>
        <time>2015-01-24T11:20:52.650Z</time>
      </trkpt>
      <trkpt lat="45.22277" lon="6.01319">
        <ele>1624.12</ele>
        <time>2015-01-24T11:21:00.640Z</time>
      </trkpt>
      <trkpt lat="45.22248" lon="6.01286">
        <ele>1611.24</ele>
        <time>2015-01-24T11:21:12.640Z</time>
      </trkpt>
      <trkpt lat="45.2221" lon="6.01271">
        <ele>1602.12</ele>
        <time>2015-01-24T11:21:20.640Z</time>
      </trkpt>
      <trkpt lat="45.22217" lon="6.01238">
        <ele>1594.24</ele>
        <time>2015-01-24T11:21:28.640Z</time>
      </trkpt>
      <trkpt lat="45.22225" lon="6.01201">
        <ele>1585.24</ele>
        <time>2015-01-24T11:21:36.640Z</time>
      </trkpt>
      <trkpt lat="45.22222" lon="6.01155">
        <ele>1577.24</ele>
        <time>2015-01-24T11:21:44.640Z</time>
      </trkpt>
      <trkpt lat="45.22225" lon="6.01098">
        <ele>1570.24</ele>
        <time>2015-01-24T11:21:52.640Z</time>
      </trkpt>
      <trkpt lat="45.22212" lon="6.01065">
        <ele>1563.24</ele>
        <time>2015-01-24T11:22:00.640Z</time>
      </trkpt>
      <trkpt lat="45.22213" lon="6.01028">
        <ele>1556.12</ele>
        <time>2015-01-24T11:22:08.640Z</time>
      </trkpt>
      <trkpt lat="45.22228" lon="6.00985">
        <ele>1549.12</ele>
        <time>2015-01-24T11:22:16.640Z</time>
      </trkpt>
      <trkpt lat="45.22231" lon="6.0095">
        <ele>1544.12</ele>
        <time>2015-01-24T11:22:24.640Z</time>
      </trkpt>
      <trkpt lat="45.22232" lon="6.00927">
        <ele>1538</ele>
        <time>2015-01-24T11:22:40.640Z</time>
      </trkpt>
      <trkpt lat="45.22235" lon="6.00902">
        <ele>1536</ele>
        <time>2015-01-24T11:23:00.640Z</time>
      </trkpt>
      <trkpt lat="45.22221" lon="6.00856">
        <ele>1517.12</ele>
        <time>2015-01-24T11:23:08.640Z</time>
      </trkpt>
      <trkpt lat="45.22206" lon="6.00825">
        <ele>1510.12</ele>
        <time>2015-01-24T11:23:16.640Z</time>
      </trkpt>
      <trkpt lat="45.22184" lon="6.00806">
        <ele>1506</ele>
        <time>2015-01-24T11:23:24.640Z</time>
      </trkpt>
      <trkpt lat="45.22175" lon="6.00772">
        <ele>1500</ele>
        <time>2015-01-24T11:23:32.640Z</time>
      </trkpt>
      <trkpt lat="45.22185" lon="6.00732">
        <ele>1493.1100032</ele>
        <time>2015-01-24T11:23:40.650Z</time>
      </trkpt>
      <trkpt lat="45.22214" lon="6.0072">
        <ele>1486.12</ele>
        <time>2015-01-24T11:23:48.640Z</time>
      </trkpt>
      <trkpt lat="45.22207" lon="6.00688">
        <ele>1476.12</ele>
        <time>2015-01-24T11:23:56.640Z</time>
      </trkpt>
      <trkpt lat="45.22192" lon="6.00632">
        <ele>1470</ele>
        <time>2015-01-24T11:24:07.640Z</time>
      </trkpt>
      <trkpt lat="45.22211" lon="6.00596">
        <ele>1468</ele>
        <time>2015-01-24T11:24:19.740Z</time>
      </trkpt>
      <trkpt lat="45.22216" lon="6.00567">
        <ele>1462</ele>
        <time>2015-01-24T11:24:27.740Z</time>
      </trkpt>
      <trkpt lat="45.2222" lon="6.00534">
        <ele>1449.0399872</ele>
        <time>2015-01-24T11:24:35.740Z</time>
      </trkpt>
      <trkpt lat="45.2222" lon="6.00504">
        <ele>1444.0199936</ele>
        <time>2015-01-24T11:24:43.740Z</time>
      </trkpt>
      <trkpt lat="45.22245" lon="6.00508">
        <ele>1440</ele>
        <time>2015-01-24T11:24:51.740Z</time>
      </trkpt>
      <trkpt lat="45.22228" lon="6.00473">
        <ele>1433.0199936</ele>
        <time>2015-01-24T11:24:59.740Z</time>
      </trkpt>
      <trkpt lat="45.22232" lon="6.00446">
        <ele>1428.0296935594</ele>
        <time>2015-01-24T11:25:07.740Z</time>
      </trkpt>
      <trkpt lat="45.22251" lon="6.00417">
        <ele>1417.12</ele>
        <time>2015-01-24T11:25:15.640Z</time>
      </trkpt>
      <trkpt lat="45.2227" lon="6.00403">
        <ele>1407.24</ele>
        <time>2015-01-24T11:25:23.640Z</time>
      </trkpt>
      <trkpt lat="45.22284" lon="6.00377">
        <ele>1396.24</ele>
        <time>2015-01-24T11:25:31.640Z</time>
      </trkpt>
      <trkpt lat="45.2232" lon="6.00326">
        <ele>1384.12</ele>
        <time>2015-01-24T11:25:39.640Z</time>
      </trkpt>
      <trkpt lat="45.22319" lon="6.00267">
        <ele>1375.12</ele>
        <time>2015-01-24T11:25:47.640Z</time>
      </trkpt>
      <trkpt lat="45.22313" lon="6.00243">
        <ele>1372.12</ele>
        <time>2015-01-24T11:25:55.640Z</time>
      </trkpt>
      <trkpt lat="45.2232" lon="6.002">
        <ele>1361</ele>
        <time>2015-01-24T11:26:03.640Z</time>
      </trkpt>
      <trkpt lat="45.22383" lon="6.00145">
        <ele>1355</ele>
        <time>2015-01-24T11:26:11.640Z</time>
      </trkpt>
      <trkpt lat="45.22441" lon="6.00102">
        <ele>1346.12</ele>
        <time>2015-01-24T11:26:19.640Z</time>
      </trkpt>
      <trkpt lat="45.22495" lon="6.00022">
        <ele>1336.36</ele>
        <time>2015-01-24T11:26:27.640Z</time>
      </trkpt>
      <trkpt lat="45.22533" lon="5.99942">
        <ele>1326.12</ele>
        <time>2015-01-24T11:26:35.640Z</time>
      </trkpt>
      <trkpt lat="45.22536" lon="5.99856">
        <ele>1315.12</ele>
        <time>2015-01-24T11:26:43.640Z</time>
      </trkpt>
      <trkpt lat="45.22533" lon="5.99776">
        <ele>1305.88</ele>
        <time>2015-01-24T11:26:51.640Z</time>
      </trkpt>
      <trkpt lat="45.22519" lon="5.99792">
        <ele>1297</ele>
        <time>2015-01-24T11:27:03.640Z</time>
      </trkpt>
      <trkpt lat="45.22476" lon="5.99845">
        <ele>1295</ele>
        <time>2015-01-24T11:27:11.640Z</time>
      </trkpt>
      <trkpt lat="45.22431" lon="5.999">
        <ele>1294</ele>
        <time>2015-01-24T11:27:19.640Z</time>
      </trkpt>
      <trkpt lat="45.22452" lon="5.99849">
        <ele>1293</ele>
        <time>2015-01-24T11:27:27.640Z</time>
      </trkpt>
      <trkpt lat="45.22498" lon="5.99813">
        <ele>1290</ele>
        <time>2015-01-24T11:27:35.640Z</time>
      </trkpt>
      <trkpt lat="45.2251" lon="5.99749">
        <ele>1285</ele>
        <time>2015-01-24T11:27:43.640Z</time>
      </trkpt>
      <trkpt lat="45.22504" lon="5.99678">
        <ele>1282.24</ele>
        <time>2015-01-24T11:27:51.640Z</time>
      </trkpt>
      <trkpt lat="45.22505" lon="5.99603">
        <ele>1279</ele>
        <time>2015-01-24T11:27:59.640Z</time>
      </trkpt>
      <trkpt lat="45.22563" lon="5.99525">
        <ele>1269.7394938098</ele>
        <time>2015-01-24T11:28:08.640Z</time>
      </trkpt>
      <trkpt lat="45.22609" lon="5.99472">
        <ele>1264</ele>
        <time>2015-01-24T11:28:16.640Z</time>
      </trkpt>
      <trkpt lat="45.22651" lon="5.99424">
        <ele>1255.24</ele>
        <time>2015-01-24T11:28:24.640Z</time>
      </trkpt>
      <trkpt lat="45.22703" lon="5.99378">
        <ele>1249.12</ele>
        <time>2015-01-24T11:28:32.640Z</time>
      </trkpt>
      <trkpt lat="45.2275" lon="5.99338">
        <ele>1242.88</ele>
        <time>2015-01-24T11:28:40.640Z</time>
      </trkpt>
      <trkpt lat="45.228" lon="5.99272">
        <ele>1237.2542332433</ele>
        <time>2015-01-24T11:28:47.640Z</time>
      </trkpt>
      <trkpt lat="45.22845" lon="5.99224">
        <ele>1229.2478611907</ele>
        <time>2015-01-24T11:28:55.640Z</time>
      </trkpt>
      <trkpt lat="45.22856" lon="5.9918">
        <ele>1224.2542332433</ele>
        <time>2015-01-24T11:29:01.640Z</time>
      </trkpt>
      <trkpt lat="45.22879" lon="5.99147">
        <ele>1221.2478611907</ele>
        <time>2015-01-24T11:29:06.640Z</time>
      </trkpt>
      <trkpt lat="45.22943" lon="5.99125">
        <ele>1215</ele>
        <time>2015-01-24T11:29:14.640Z</time>
      </trkpt>
      <trkpt lat="45.22985" lon="5.991">
        <ele>1209</ele>
        <time>2015-01-24T11:29:19.840Z</time>
      </trkpt>
      <trkpt lat="45.2305" lon="5.99085">
        <ele>1201.76</ele>
        <time>2015-01-24T11:29:28.640Z</time>
      </trkpt>
      <trkpt lat="45.23101" lon="5.99074">
        <ele>1196</ele>
        <time>2015-01-24T11:29:36.640Z</time>
      </trkpt>
      <trkpt lat="45.23136" lon="5.99021">
        <ele>1188.88</ele>
        <time>2015-01-24T11:29:44.640Z</time>
      </trkpt>
      <trkpt lat="45.23168" lon="5.98952">
        <ele>1182.24</ele>
        <time>2015-01-24T11:29:52.640Z</time>
      </trkpt>
      <trkpt lat="45.23217" lon="5.9889">
        <ele>1177</ele>
        <time>2015-01-24T11:30:00.640Z</time>
      </trkpt>
      <trkpt lat="45.23279" lon="5.98872">
        <ele>1170.12</ele>
        <time>2015-01-24T11:30:08.640Z</time>
      </trkpt>
      <trkpt lat="45.23324" lon="5.98832">
        <ele>1164</ele>
        <time>2015-01-24T11:30:16.640Z</time>
      </trkpt>
      <trkpt lat="45.23362" lon="5.98793">
        <ele>1158.12</ele>
        <time>2015-01-24T11:30:24.640Z</time>
      </trkpt>
      <trkpt lat="45.23409" lon="5.98748">
        <ele>1152.24</ele>
        <time>2015-01-24T11:30:32.640Z</time>
      </trkpt>
      <trkpt lat="45.2345" lon="5.98691">
        <ele>1147</ele>
        <time>2015-01-24T11:30:40.640Z</time>
      </trkpt>
      <trkpt lat="45.23481" lon="5.98624">
        <ele>1141</ele>
        <time>2015-01-24T11:30:48.640Z</time>
      </trkpt>
      <trkpt lat="45.23514" lon="5.98563">
        <ele>1135</ele>
        <time>2015-01-24T11:30:56.640Z</time>
      </trkpt>
      <trkpt lat="45.23553" lon="5.98511">
        <ele>1126.88</ele>
        <time>2015-01-24T11:31:04.640Z</time>
      </trkpt>
      <trkpt lat="45.23619" lon="5.98477">
        <ele>1121</ele>
        <time>2015-01-24T11:31:13.640Z</time>
      </trkpt>
      <trkpt lat="45.23674" lon="5.98485">
        <ele>1116.12</ele>
        <time>2015-01-24T11:31:21.640Z</time>
      </trkpt>
      <trkpt lat="45.23705" lon="5.98478">
        <ele>1113.7627239988</ele>
        <time>2015-01-24T11:31:26.640Z</time>
      </trkpt>
      <trkpt lat="45.2373" lon="5.98442">
        <ele>1108.12</ele>
        <time>2015-01-24T11:31:34.640Z</time>
      </trkpt>
      <trkpt lat="45.23758" lon="5.98423">
        <ele>1104.5042776185</ele>
        <time>2015-01-24T11:31:39.640Z</time>
      </trkpt>
      <trkpt lat="45.23823" lon="5.98421">
        <ele>1096.2283534404</ele>
        <time>2015-01-24T11:31:48.740Z</time>
      </trkpt>
      <trkpt lat="45.23877" lon="5.98431">
        <ele>1090.9207918283</ele>
        <time>2015-01-24T11:31:55.840Z</time>
      </trkpt>
      <trkpt lat="45.23913" lon="5.98363">
        <ele>1085.84</ele>
        <time>2015-01-24T11:32:03.840Z</time>
      </trkpt>
      <trkpt lat="45.23944" lon="5.98327">
        <ele>1081</ele>
        <time>2015-01-24T11:32:11.740Z</time>
      </trkpt>
      <trkpt lat="45.23989" lon="5.98295">
        <ele>1079</ele>
        <time>2015-01-24T11:32:19.840Z</time>
      </trkpt>
      <trkpt lat="45.24041" lon="5.98285">
        <ele>1073</ele>
        <time>2015-01-24T11:32:28.650Z</time>
      </trkpt>
      <trkpt lat="45.2408" lon="5.98253">
        <ele>1066</ele>
        <time>2015-01-24T11:32:36.640Z</time>
      </trkpt>
      <trkpt lat="45.24094" lon="5.98192">
        <ele>1061.12</ele>
        <time>2015-01-24T11:32:44.640Z</time>
      </trkpt>
      <trkpt lat="45.24102" lon="5.98136">
        <ele>1057</ele>
        <time>2015-01-24T11:32:52.640Z</time>
      </trkpt>
      <trkpt lat="45.24129" lon="5.98102">
        <ele>1051</ele>
        <time>2015-01-24T11:33:00.640Z</time>
      </trkpt>
      <trkpt lat="45.24166" lon="5.98067">
        <ele>1047.12</ele>
        <time>2015-01-24T11:33:08.640Z</time>
      </trkpt>
      <trkpt lat="45.24202" lon="5.98037">
        <ele>1045.84</ele>
        <time>2015-01-24T11:33:15.840Z</time>
      </trkpt>
      <trkpt lat="45.2424" lon="5.98015">
        <ele>1042</ele>
        <time>2015-01-24T11:33:23.840Z</time>
      </trkpt>
      <trkpt lat="45.24302" lon="5.97984">
        <ele>1035</ele>
        <time>2015-01-24T11:33:37.740Z</time>
      </trkpt>
      <trkpt lat="45.24307" lon="5.97979">
        <ele>1035</ele>
        <time>2015-01-24T11:33:40.930Z</time>
      </trkpt>
    </trkseg>
  </trk>
</gpx>